<?xml version="1.0" encoding="UTF-8" standalone="no" ?>
<gpx xmlns="http://www.topografix.com/GPX/1/1" xmlns:xsi="http://www.w3.org/2001/XMLSchema-instance" xsi:schemaLocation="http://www.topografix.com/GPX/1/1 http://www.topografix.com/GPX/1/1/gpx.xsd" version="1.1" creator="VisuGPX - https://www.visugpx.com">
  <metadata>
    <name>83 - L - Les Arcs </name>
    <desc><![CDATA[83 - L - Les Arcs : la Font du Broc 2
022-12-19]]></desc>
  </metadata>
  <trk>
    <name><![CDATA[Les Arcs la Font du Broc 2022-12-19-01]]></name>
    <trkseg>
      <trkpt lat="43.47594" lon="6.51308">
        <ele>116.4</ele>
        <time>2022-12-19T08:12:00Z</time>
      </trkpt>
      <trkpt lat="43.47595" lon="6.5131">
        <ele>116</ele>
        <time>2022-12-19T08:11:58Z</time>
      </trkpt>
      <trkpt lat="43.47589" lon="6.51296">
        <ele>116</ele>
        <time>2022-12-19T08:12:18Z</time>
      </trkpt>
      <trkpt lat="43.47583" lon="6.51282">
        <ele>118</ele>
        <time>2022-12-19T08:12:30Z</time>
      </trkpt>
      <trkpt lat="43.47577" lon="6.51269">
        <ele>117</ele>
        <time>2022-12-19T08:12:42Z</time>
      </trkpt>
      <trkpt lat="43.47571" lon="6.51254">
        <ele>118</ele>
        <time>2022-12-19T08:12:54Z</time>
      </trkpt>
      <trkpt lat="43.47567" lon="6.51241">
        <ele>119</ele>
        <time>2022-12-19T08:13:05Z</time>
      </trkpt>
      <trkpt lat="43.47563" lon="6.51228">
        <ele>119.3</ele>
        <time>2022-12-19T08:13:14Z</time>
      </trkpt>
      <trkpt lat="43.4756" lon="6.51216">
        <ele>119.8</ele>
        <time>2022-12-19T08:13:26Z</time>
      </trkpt>
      <trkpt lat="43.47558" lon="6.51203">
        <ele>120.1</ele>
        <time>2022-12-19T08:13:35Z</time>
      </trkpt>
      <trkpt lat="43.47556" lon="6.5119">
        <ele>120.7</ele>
        <time>2022-12-19T08:13:44Z</time>
      </trkpt>
      <trkpt lat="43.47552" lon="6.51177">
        <ele>121.1</ele>
        <time>2022-12-19T08:13:54Z</time>
      </trkpt>
      <trkpt lat="43.47547" lon="6.51165">
        <ele>121.5</ele>
        <time>2022-12-19T08:14:18Z</time>
      </trkpt>
      <trkpt lat="43.47544" lon="6.51153">
        <ele>121.7</ele>
        <time>2022-12-19T08:14:29Z</time>
      </trkpt>
      <trkpt lat="43.4755" lon="6.51143">
        <ele>122.3</ele>
        <time>2022-12-19T08:14:42Z</time>
      </trkpt>
      <trkpt lat="43.47559" lon="6.51139">
        <ele>123.8</ele>
        <time>2022-12-19T08:15:00Z</time>
      </trkpt>
      <trkpt lat="43.47568" lon="6.51138">
        <ele>124.6</ele>
        <time>2022-12-19T08:15:10Z</time>
      </trkpt>
      <trkpt lat="43.4758" lon="6.51142">
        <ele>125.5</ele>
        <time>2022-12-19T08:15:20Z</time>
      </trkpt>
      <trkpt lat="43.47589" lon="6.51144">
        <ele>126.2</ele>
        <time>2022-12-19T08:15:29Z</time>
      </trkpt>
      <trkpt lat="43.47598" lon="6.51145">
        <ele>127.3</ele>
        <time>2022-12-19T08:15:41Z</time>
      </trkpt>
      <trkpt lat="43.47607" lon="6.51144">
        <ele>127.3</ele>
        <time>2022-12-19T08:16:08Z</time>
      </trkpt>
      <trkpt lat="43.47616" lon="6.51139">
        <ele>130.1</ele>
        <time>2022-12-19T08:16:21Z</time>
      </trkpt>
      <trkpt lat="43.47625" lon="6.51134">
        <ele>127.9</ele>
        <time>2022-12-19T08:16:33Z</time>
      </trkpt>
      <trkpt lat="43.47634" lon="6.51128">
        <ele>132.3</ele>
        <time>2022-12-19T08:16:46Z</time>
      </trkpt>
      <trkpt lat="43.47642" lon="6.51123">
        <ele>135.2</ele>
        <time>2022-12-19T08:16:57Z</time>
      </trkpt>
      <trkpt lat="43.47651" lon="6.51119">
        <ele>136.5</ele>
        <time>2022-12-19T08:17:07Z</time>
      </trkpt>
      <trkpt lat="43.4766" lon="6.51117">
        <ele>138.3</ele>
        <time>2022-12-19T08:17:21Z</time>
      </trkpt>
      <trkpt lat="43.47669" lon="6.51111">
        <ele>139.6</ele>
        <time>2022-12-19T08:17:34Z</time>
      </trkpt>
      <trkpt lat="43.47678" lon="6.51108">
        <ele>140.1</ele>
        <time>2022-12-19T08:17:44Z</time>
      </trkpt>
      <trkpt lat="43.47686" lon="6.51115">
        <ele>141.6</ele>
        <time>2022-12-19T08:17:55Z</time>
      </trkpt>
      <trkpt lat="43.4769" lon="6.51127">
        <ele>143.4</ele>
        <time>2022-12-19T08:18:09Z</time>
      </trkpt>
      <trkpt lat="43.47692" lon="6.51139">
        <ele>144.8</ele>
        <time>2022-12-19T08:18:22Z</time>
      </trkpt>
      <trkpt lat="43.47696" lon="6.51151">
        <ele>146</ele>
        <time>2022-12-19T08:18:37Z</time>
      </trkpt>
      <trkpt lat="43.47701" lon="6.51162">
        <ele>146.9</ele>
        <time>2022-12-19T08:18:50Z</time>
      </trkpt>
      <trkpt lat="43.47708" lon="6.5117">
        <ele>148.1</ele>
        <time>2022-12-19T08:19:03Z</time>
      </trkpt>
      <trkpt lat="43.47717" lon="6.51173">
        <ele>149.7</ele>
        <time>2022-12-19T08:19:17Z</time>
      </trkpt>
      <trkpt lat="43.47727" lon="6.51171">
        <ele>151.8</ele>
        <time>2022-12-19T08:19:36Z</time>
      </trkpt>
      <trkpt lat="43.47735" lon="6.51166">
        <ele>153</ele>
        <time>2022-12-19T08:19:47Z</time>
      </trkpt>
      <trkpt lat="43.47743" lon="6.51161">
        <ele>154.4</ele>
        <time>2022-12-19T08:19:58Z</time>
      </trkpt>
      <trkpt lat="43.47751" lon="6.51154">
        <ele>156</ele>
        <time>2022-12-19T08:20:11Z</time>
      </trkpt>
      <trkpt lat="43.47759" lon="6.51146">
        <ele>157.6</ele>
        <time>2022-12-19T08:20:25Z</time>
      </trkpt>
      <trkpt lat="43.47767" lon="6.51141">
        <ele>160</ele>
        <time>2022-12-19T08:20:48Z</time>
      </trkpt>
      <trkpt lat="43.47773" lon="6.5115">
        <ele>160.3</ele>
        <time>2022-12-19T08:21:31Z</time>
      </trkpt>
      <trkpt lat="43.47782" lon="6.51148">
        <ele>160.6</ele>
        <time>2022-12-19T08:22:50Z</time>
      </trkpt>
      <trkpt lat="43.47792" lon="6.51145">
        <ele>160.8</ele>
        <time>2022-12-19T08:25:15Z</time>
      </trkpt>
      <trkpt lat="43.47801" lon="6.51145">
        <ele>160.8</ele>
        <time>2022-12-19T08:25:29Z</time>
      </trkpt>
      <trkpt lat="43.47811" lon="6.51146">
        <ele>160.7</ele>
        <time>2022-12-19T08:25:51Z</time>
      </trkpt>
      <trkpt lat="43.4782" lon="6.51144">
        <ele>160.2</ele>
        <time>2022-12-19T08:26:53Z</time>
      </trkpt>
      <trkpt lat="43.47828" lon="6.5114">
        <ele>158.2</ele>
        <time>2022-12-19T08:27:28Z</time>
      </trkpt>
      <trkpt lat="43.47835" lon="6.51132">
        <ele>159</ele>
        <time>2022-12-19T08:27:37Z</time>
      </trkpt>
      <trkpt lat="43.47838" lon="6.51119">
        <ele>162.6</ele>
        <time>2022-12-19T08:28:17Z</time>
      </trkpt>
      <trkpt lat="43.47842" lon="6.51108">
        <ele>165.2</ele>
        <time>2022-12-19T08:28:33Z</time>
      </trkpt>
      <trkpt lat="43.47847" lon="6.51097">
        <ele>165.3</ele>
        <time>2022-12-19T08:28:46Z</time>
      </trkpt>
      <trkpt lat="43.47851" lon="6.51085">
        <ele>167.2</ele>
        <time>2022-12-19T08:28:58Z</time>
      </trkpt>
      <trkpt lat="43.47856" lon="6.51074">
        <ele>168.7</ele>
        <time>2022-12-19T08:29:12Z</time>
      </trkpt>
      <trkpt lat="43.47861" lon="6.51063">
        <ele>169.7</ele>
        <time>2022-12-19T08:29:23Z</time>
      </trkpt>
      <trkpt lat="43.47866" lon="6.51052">
        <ele>170.5</ele>
        <time>2022-12-19T08:29:35Z</time>
      </trkpt>
      <trkpt lat="43.47871" lon="6.5104">
        <ele>171.7</ele>
        <time>2022-12-19T08:29:47Z</time>
      </trkpt>
      <trkpt lat="43.47875" lon="6.51029">
        <ele>174.2</ele>
        <time>2022-12-19T08:29:57Z</time>
      </trkpt>
      <trkpt lat="43.47879" lon="6.51017">
        <ele>171.5</ele>
        <time>2022-12-19T08:30:07Z</time>
      </trkpt>
      <trkpt lat="43.47885" lon="6.51008">
        <ele>175.6</ele>
        <time>2022-12-19T08:30:46Z</time>
      </trkpt>
      <trkpt lat="43.4789" lon="6.50997">
        <ele>174.3</ele>
        <time>2022-12-19T08:30:55Z</time>
      </trkpt>
      <trkpt lat="43.47895" lon="6.50986">
        <ele>174.7</ele>
        <time>2022-12-19T08:31:05Z</time>
      </trkpt>
      <trkpt lat="43.47898" lon="6.50974">
        <ele>174.7</ele>
        <time>2022-12-19T08:31:15Z</time>
      </trkpt>
      <trkpt lat="43.47903" lon="6.50963">
        <ele>175.1</ele>
        <time>2022-12-19T08:31:29Z</time>
      </trkpt>
      <trkpt lat="43.47907" lon="6.50951">
        <ele>175.2</ele>
        <time>2022-12-19T08:31:38Z</time>
      </trkpt>
      <trkpt lat="43.47912" lon="6.50939">
        <ele>177.7</ele>
        <time>2022-12-19T08:31:48Z</time>
      </trkpt>
      <trkpt lat="43.47917" lon="6.50928">
        <ele>176.7</ele>
        <time>2022-12-19T08:31:58Z</time>
      </trkpt>
      <trkpt lat="43.47922" lon="6.50917">
        <ele>174.8</ele>
        <time>2022-12-19T08:32:09Z</time>
      </trkpt>
      <trkpt lat="43.47928" lon="6.50906">
        <ele>174</ele>
        <time>2022-12-19T08:32:19Z</time>
      </trkpt>
      <trkpt lat="43.47933" lon="6.50894">
        <ele>174.1</ele>
        <time>2022-12-19T08:32:29Z</time>
      </trkpt>
      <trkpt lat="43.47937" lon="6.50883">
        <ele>173.6</ele>
        <time>2022-12-19T08:32:42Z</time>
      </trkpt>
      <trkpt lat="43.47941" lon="6.50871">
        <ele>172.1</ele>
        <time>2022-12-19T08:32:52Z</time>
      </trkpt>
      <trkpt lat="43.47944" lon="6.5086">
        <ele>173.2</ele>
        <time>2022-12-19T08:33:01Z</time>
      </trkpt>
      <trkpt lat="43.47948" lon="6.50849">
        <ele>171.4</ele>
        <time>2022-12-19T08:33:09Z</time>
      </trkpt>
      <trkpt lat="43.47952" lon="6.50838">
        <ele>172.6</ele>
        <time>2022-12-19T08:33:18Z</time>
      </trkpt>
      <trkpt lat="43.47957" lon="6.50826">
        <ele>172.9</ele>
        <time>2022-12-19T08:33:31Z</time>
      </trkpt>
      <trkpt lat="43.4796" lon="6.50814">
        <ele>173</ele>
        <time>2022-12-19T08:33:40Z</time>
      </trkpt>
      <trkpt lat="43.47964" lon="6.50802">
        <ele>172.8</ele>
        <time>2022-12-19T08:33:48Z</time>
      </trkpt>
      <trkpt lat="43.47968" lon="6.50791">
        <ele>172.5</ele>
        <time>2022-12-19T08:33:58Z</time>
      </trkpt>
      <trkpt lat="43.47972" lon="6.50778">
        <ele>171.9</ele>
        <time>2022-12-19T08:34:21Z</time>
      </trkpt>
      <trkpt lat="43.47976" lon="6.50767">
        <ele>171.5</ele>
        <time>2022-12-19T08:34:30Z</time>
      </trkpt>
      <trkpt lat="43.47981" lon="6.50756">
        <ele>170.8</ele>
        <time>2022-12-19T08:34:40Z</time>
      </trkpt>
      <trkpt lat="43.47984" lon="6.50744">
        <ele>169.8</ele>
        <time>2022-12-19T08:34:49Z</time>
      </trkpt>
      <trkpt lat="43.47988" lon="6.50733">
        <ele>169.3</ele>
        <time>2022-12-19T08:34:58Z</time>
      </trkpt>
      <trkpt lat="43.4799" lon="6.50721">
        <ele>169.3</ele>
        <time>2022-12-19T08:35:11Z</time>
      </trkpt>
      <trkpt lat="43.47994" lon="6.50708">
        <ele>169.2</ele>
        <time>2022-12-19T08:35:21Z</time>
      </trkpt>
      <trkpt lat="43.47999" lon="6.50696">
        <ele>169</ele>
        <time>2022-12-19T08:35:32Z</time>
      </trkpt>
      <trkpt lat="43.48003" lon="6.50685">
        <ele>168.4</ele>
        <time>2022-12-19T08:35:44Z</time>
      </trkpt>
      <trkpt lat="43.48007" lon="6.50673">
        <ele>168.1</ele>
        <time>2022-12-19T08:35:53Z</time>
      </trkpt>
      <trkpt lat="43.48011" lon="6.50662">
        <ele>167.3</ele>
        <time>2022-12-19T08:36:04Z</time>
      </trkpt>
      <trkpt lat="43.48016" lon="6.5065">
        <ele>167.4</ele>
        <time>2022-12-19T08:36:14Z</time>
      </trkpt>
      <trkpt lat="43.48021" lon="6.50637">
        <ele>165.7</ele>
        <time>2022-12-19T08:36:23Z</time>
      </trkpt>
      <trkpt lat="43.48026" lon="6.50627">
        <ele>165.6</ele>
        <time>2022-12-19T08:36:32Z</time>
      </trkpt>
      <trkpt lat="43.48028" lon="6.50614">
        <ele>165.5</ele>
        <time>2022-12-19T08:36:49Z</time>
      </trkpt>
      <trkpt lat="43.48033" lon="6.50603">
        <ele>166.7</ele>
        <time>2022-12-19T08:37:03Z</time>
      </trkpt>
      <trkpt lat="43.48037" lon="6.50591">
        <ele>165.5</ele>
        <time>2022-12-19T08:37:13Z</time>
      </trkpt>
      <trkpt lat="43.48041" lon="6.50579">
        <ele>167.2</ele>
        <time>2022-12-19T08:37:23Z</time>
      </trkpt>
      <trkpt lat="43.48044" lon="6.50567">
        <ele>166.8</ele>
        <time>2022-12-19T08:37:35Z</time>
      </trkpt>
      <trkpt lat="43.48048" lon="6.50555">
        <ele>166.5</ele>
        <time>2022-12-19T08:37:48Z</time>
      </trkpt>
      <trkpt lat="43.48053" lon="6.50543">
        <ele>167.5</ele>
        <time>2022-12-19T08:38:00Z</time>
      </trkpt>
      <trkpt lat="43.48058" lon="6.50531">
        <ele>167.8</ele>
        <time>2022-12-19T08:38:12Z</time>
      </trkpt>
      <trkpt lat="43.48063" lon="6.5052">
        <ele>167.3</ele>
        <time>2022-12-19T08:38:21Z</time>
      </trkpt>
      <trkpt lat="43.48068" lon="6.5051">
        <ele>168.3</ele>
        <time>2022-12-19T08:38:31Z</time>
      </trkpt>
      <trkpt lat="43.48071" lon="6.50497">
        <ele>168.8</ele>
        <time>2022-12-19T08:38:44Z</time>
      </trkpt>
      <trkpt lat="43.48073" lon="6.50485">
        <ele>168.9</ele>
        <time>2022-12-19T08:38:53Z</time>
      </trkpt>
      <trkpt lat="43.48076" lon="6.50472">
        <ele>168.9</ele>
        <time>2022-12-19T08:39:04Z</time>
      </trkpt>
      <trkpt lat="43.48082" lon="6.50461">
        <ele>169.2</ele>
        <time>2022-12-19T08:39:17Z</time>
      </trkpt>
      <trkpt lat="43.48087" lon="6.50451">
        <ele>170.3</ele>
        <time>2022-12-19T08:39:33Z</time>
      </trkpt>
      <trkpt lat="43.48085" lon="6.50439">
        <ele>170.5</ele>
        <time>2022-12-19T08:43:32Z</time>
      </trkpt>
      <trkpt lat="43.48078" lon="6.5043">
        <ele>170.4</ele>
        <time>2022-12-19T08:43:46Z</time>
      </trkpt>
      <trkpt lat="43.48073" lon="6.50418">
        <ele>169.6</ele>
        <time>2022-12-19T08:44:01Z</time>
      </trkpt>
      <trkpt lat="43.48067" lon="6.50409">
        <ele>168.7</ele>
        <time>2022-12-19T08:44:13Z</time>
      </trkpt>
      <trkpt lat="43.48059" lon="6.50403">
        <ele>167.4</ele>
        <time>2022-12-19T08:44:33Z</time>
      </trkpt>
      <trkpt lat="43.4805" lon="6.50405">
        <ele>166.4</ele>
        <time>2022-12-19T08:45:23Z</time>
      </trkpt>
      <trkpt lat="43.48041" lon="6.50404">
        <ele>165.3</ele>
        <time>2022-12-19T08:45:37Z</time>
      </trkpt>
      <trkpt lat="43.48033" lon="6.50398">
        <ele>163.7</ele>
        <time>2022-12-19T08:45:58Z</time>
      </trkpt>
      <trkpt lat="43.48028" lon="6.50387">
        <ele>162.8</ele>
        <time>2022-12-19T08:46:09Z</time>
      </trkpt>
      <trkpt lat="43.48019" lon="6.50388">
        <ele>162.2</ele>
        <time>2022-12-19T08:46:44Z</time>
      </trkpt>
      <trkpt lat="43.48012" lon="6.50378">
        <ele>161.2</ele>
        <time>2022-12-19T08:47:14Z</time>
      </trkpt>
      <trkpt lat="43.48004" lon="6.50371">
        <ele>160.7</ele>
        <time>2022-12-19T08:47:23Z</time>
      </trkpt>
      <trkpt lat="43.47998" lon="6.50362">
        <ele>159.6</ele>
        <time>2022-12-19T08:47:36Z</time>
      </trkpt>
      <trkpt lat="43.47991" lon="6.50354">
        <ele>158.8</ele>
        <time>2022-12-19T08:47:48Z</time>
      </trkpt>
      <trkpt lat="43.47981" lon="6.5035">
        <ele>157.4</ele>
        <time>2022-12-19T08:48:02Z</time>
      </trkpt>
      <trkpt lat="43.47974" lon="6.50342">
        <ele>155.8</ele>
        <time>2022-12-19T08:48:15Z</time>
      </trkpt>
      <trkpt lat="43.47969" lon="6.50332">
        <ele>154</ele>
        <time>2022-12-19T08:48:29Z</time>
      </trkpt>
      <trkpt lat="43.4796" lon="6.50328">
        <ele>152.6</ele>
        <time>2022-12-19T08:48:48Z</time>
      </trkpt>
      <trkpt lat="43.47952" lon="6.50321">
        <ele>150.3</ele>
        <time>2022-12-19T08:49:09Z</time>
      </trkpt>
      <trkpt lat="43.47943" lon="6.50326">
        <ele>149.2</ele>
        <time>2022-12-19T08:49:20Z</time>
      </trkpt>
      <trkpt lat="43.47935" lon="6.50335">
        <ele>148.5</ele>
        <time>2022-12-19T08:49:29Z</time>
      </trkpt>
      <trkpt lat="43.47926" lon="6.50338">
        <ele>147.6</ele>
        <time>2022-12-19T08:49:50Z</time>
      </trkpt>
      <trkpt lat="43.47918" lon="6.50345">
        <ele>146.4</ele>
        <time>2022-12-19T08:50:03Z</time>
      </trkpt>
      <trkpt lat="43.47912" lon="6.50355">
        <ele>144.4</ele>
        <time>2022-12-19T08:50:15Z</time>
      </trkpt>
      <trkpt lat="43.47905" lon="6.50363">
        <ele>145.2</ele>
        <time>2022-12-19T08:50:27Z</time>
      </trkpt>
      <trkpt lat="43.47899" lon="6.50374">
        <ele>144.8</ele>
        <time>2022-12-19T08:50:37Z</time>
      </trkpt>
      <trkpt lat="43.47896" lon="6.50386">
        <ele>144.3</ele>
        <time>2022-12-19T08:51:03Z</time>
      </trkpt>
      <trkpt lat="43.4789" lon="6.50395">
        <ele>143.6</ele>
        <time>2022-12-19T08:51:17Z</time>
      </trkpt>
      <trkpt lat="43.47885" lon="6.50405">
        <ele>144.7</ele>
        <time>2022-12-19T08:51:30Z</time>
      </trkpt>
      <trkpt lat="43.47878" lon="6.50414">
        <ele>145.7</ele>
        <time>2022-12-19T08:51:41Z</time>
      </trkpt>
      <trkpt lat="43.47871" lon="6.50423">
        <ele>145.7</ele>
        <time>2022-12-19T08:51:54Z</time>
      </trkpt>
      <trkpt lat="43.47865" lon="6.50433">
        <ele>145.7</ele>
        <time>2022-12-19T08:52:08Z</time>
      </trkpt>
      <trkpt lat="43.47859" lon="6.50444">
        <ele>144.9</ele>
        <time>2022-12-19T08:52:22Z</time>
      </trkpt>
      <trkpt lat="43.47854" lon="6.50455">
        <ele>144.9</ele>
        <time>2022-12-19T08:52:33Z</time>
      </trkpt>
      <trkpt lat="43.47849" lon="6.50466">
        <ele>144.6</ele>
        <time>2022-12-19T08:52:43Z</time>
      </trkpt>
      <trkpt lat="43.47845" lon="6.50479">
        <ele>144</ele>
        <time>2022-12-19T08:52:55Z</time>
      </trkpt>
      <trkpt lat="43.47836" lon="6.50481">
        <ele>143.5</ele>
        <time>2022-12-19T08:53:07Z</time>
      </trkpt>
      <trkpt lat="43.47827" lon="6.50482">
        <ele>142.5</ele>
        <time>2022-12-19T08:53:37Z</time>
      </trkpt>
      <trkpt lat="43.4782" lon="6.50475">
        <ele>141.8</ele>
        <time>2022-12-19T08:53:57Z</time>
      </trkpt>
      <trkpt lat="43.47827" lon="6.50467">
        <ele>141.5</ele>
        <time>2022-12-19T08:55:14Z</time>
      </trkpt>
      <trkpt lat="43.47831" lon="6.50456">
        <ele>141.4</ele>
        <time>2022-12-19T08:55:25Z</time>
      </trkpt>
      <trkpt lat="43.47835" lon="6.50445">
        <ele>141.3</ele>
        <time>2022-12-19T08:55:35Z</time>
      </trkpt>
      <trkpt lat="43.4784" lon="6.50434">
        <ele>141.4</ele>
        <time>2022-12-19T08:55:45Z</time>
      </trkpt>
      <trkpt lat="43.47844" lon="6.50422">
        <ele>141.5</ele>
        <time>2022-12-19T08:55:55Z</time>
      </trkpt>
      <trkpt lat="43.47849" lon="6.5041">
        <ele>139.9</ele>
        <time>2022-12-19T08:56:06Z</time>
      </trkpt>
      <trkpt lat="43.47856" lon="6.50401">
        <ele>141.7</ele>
        <time>2022-12-19T08:56:33Z</time>
      </trkpt>
      <trkpt lat="43.47861" lon="6.5039">
        <ele>141.8</ele>
        <time>2022-12-19T08:56:45Z</time>
      </trkpt>
      <trkpt lat="43.47862" lon="6.50378">
        <ele>141</ele>
        <time>2022-12-19T08:57:00Z</time>
      </trkpt>
      <trkpt lat="43.47868" lon="6.50367">
        <ele>142.6</ele>
        <time>2022-12-19T08:57:10Z</time>
      </trkpt>
      <trkpt lat="43.47873" lon="6.50356">
        <ele>142.9</ele>
        <time>2022-12-19T08:57:21Z</time>
      </trkpt>
      <trkpt lat="43.47878" lon="6.50346">
        <ele>142.7</ele>
        <time>2022-12-19T08:57:32Z</time>
      </trkpt>
      <trkpt lat="43.47884" lon="6.50336">
        <ele>143</ele>
        <time>2022-12-19T08:57:49Z</time>
      </trkpt>
      <trkpt lat="43.47883" lon="6.50323">
        <ele>142.6</ele>
        <time>2022-12-19T09:01:01Z</time>
      </trkpt>
      <trkpt lat="43.47892" lon="6.50322">
        <ele>142.7</ele>
        <time>2022-12-19T09:01:35Z</time>
      </trkpt>
      <trkpt lat="43.47899" lon="6.50314">
        <ele>142.9</ele>
        <time>2022-12-19T09:01:51Z</time>
      </trkpt>
      <trkpt lat="43.47905" lon="6.50304">
        <ele>142.9</ele>
        <time>2022-12-19T09:02:05Z</time>
      </trkpt>
      <trkpt lat="43.47912" lon="6.50296">
        <ele>143.1</ele>
        <time>2022-12-19T09:02:33Z</time>
      </trkpt>
      <trkpt lat="43.47919" lon="6.50288">
        <ele>143.2</ele>
        <time>2022-12-19T09:02:47Z</time>
      </trkpt>
      <trkpt lat="43.47926" lon="6.50279">
        <ele>143.3</ele>
        <time>2022-12-19T09:03:01Z</time>
      </trkpt>
      <trkpt lat="43.47933" lon="6.50269">
        <ele>143.5</ele>
        <time>2022-12-19T09:03:13Z</time>
      </trkpt>
      <trkpt lat="43.47938" lon="6.50258">
        <ele>143.5</ele>
        <time>2022-12-19T09:03:23Z</time>
      </trkpt>
      <trkpt lat="43.47944" lon="6.50249">
        <ele>144</ele>
        <time>2022-12-19T09:03:35Z</time>
      </trkpt>
      <trkpt lat="43.4795" lon="6.50239">
        <ele>144</ele>
        <time>2022-12-19T09:03:47Z</time>
      </trkpt>
      <trkpt lat="43.47956" lon="6.50229">
        <ele>144.3</ele>
        <time>2022-12-19T09:04:00Z</time>
      </trkpt>
      <trkpt lat="43.47963" lon="6.50219">
        <ele>144.6</ele>
        <time>2022-12-19T09:04:11Z</time>
      </trkpt>
      <trkpt lat="43.4797" lon="6.50211">
        <ele>144.9</ele>
        <time>2022-12-19T09:04:24Z</time>
      </trkpt>
      <trkpt lat="43.47977" lon="6.50202">
        <ele>145.1</ele>
        <time>2022-12-19T09:04:35Z</time>
      </trkpt>
      <trkpt lat="43.47984" lon="6.50193">
        <ele>145.3</ele>
        <time>2022-12-19T09:04:44Z</time>
      </trkpt>
      <trkpt lat="43.4799" lon="6.50183">
        <ele>145.4</ele>
        <time>2022-12-19T09:04:53Z</time>
      </trkpt>
      <trkpt lat="43.47996" lon="6.50172">
        <ele>145.8</ele>
        <time>2022-12-19T09:05:02Z</time>
      </trkpt>
      <trkpt lat="43.48003" lon="6.50162">
        <ele>146.6</ele>
        <time>2022-12-19T09:05:12Z</time>
      </trkpt>
      <trkpt lat="43.48009" lon="6.50152">
        <ele>145.7</ele>
        <time>2022-12-19T09:05:20Z</time>
      </trkpt>
      <trkpt lat="43.48014" lon="6.50142">
        <ele>145.9</ele>
        <time>2022-12-19T09:05:28Z</time>
      </trkpt>
      <trkpt lat="43.48022" lon="6.50133">
        <ele>146.2</ele>
        <time>2022-12-19T09:05:37Z</time>
      </trkpt>
      <trkpt lat="43.48028" lon="6.50124">
        <ele>146.1</ele>
        <time>2022-12-19T09:05:46Z</time>
      </trkpt>
      <trkpt lat="43.48035" lon="6.50116">
        <ele>147</ele>
        <time>2022-12-19T09:05:59Z</time>
      </trkpt>
      <trkpt lat="43.48043" lon="6.50109">
        <ele>146.2</ele>
        <time>2022-12-19T09:06:15Z</time>
      </trkpt>
      <trkpt lat="43.4805" lon="6.501">
        <ele>146.6</ele>
        <time>2022-12-19T09:06:26Z</time>
      </trkpt>
      <trkpt lat="43.48057" lon="6.50091">
        <ele>148.2</ele>
        <time>2022-12-19T09:06:36Z</time>
      </trkpt>
      <trkpt lat="43.48064" lon="6.50082">
        <ele>147.3</ele>
        <time>2022-12-19T09:06:46Z</time>
      </trkpt>
      <trkpt lat="43.48072" lon="6.50073">
        <ele>148.5</ele>
        <time>2022-12-19T09:07:02Z</time>
      </trkpt>
      <trkpt lat="43.48078" lon="6.50065">
        <ele>149.1</ele>
        <time>2022-12-19T09:07:12Z</time>
      </trkpt>
      <trkpt lat="43.48085" lon="6.50056">
        <ele>149.1</ele>
        <time>2022-12-19T09:07:22Z</time>
      </trkpt>
      <trkpt lat="43.48092" lon="6.50047">
        <ele>149.6</ele>
        <time>2022-12-19T09:07:32Z</time>
      </trkpt>
      <trkpt lat="43.481" lon="6.50041">
        <ele>151.1</ele>
        <time>2022-12-19T09:07:43Z</time>
      </trkpt>
      <trkpt lat="43.48109" lon="6.50037">
        <ele>149.6</ele>
        <time>2022-12-19T09:07:59Z</time>
      </trkpt>
      <trkpt lat="43.48117" lon="6.5003">
        <ele>150.8</ele>
        <time>2022-12-19T09:08:16Z</time>
      </trkpt>
      <trkpt lat="43.48122" lon="6.5002">
        <ele>149.8</ele>
        <time>2022-12-19T09:11:08Z</time>
      </trkpt>
      <trkpt lat="43.4813" lon="6.50027">
        <ele>148</ele>
        <time>2022-12-19T09:12:46Z</time>
      </trkpt>
      <trkpt lat="43.48139" lon="6.50026">
        <ele>148.7</ele>
        <time>2022-12-19T09:12:58Z</time>
      </trkpt>
      <trkpt lat="43.48147" lon="6.50019">
        <ele>148.2</ele>
        <time>2022-12-19T09:13:19Z</time>
      </trkpt>
      <trkpt lat="43.48155" lon="6.50015">
        <ele>150.5</ele>
        <time>2022-12-19T09:14:36Z</time>
      </trkpt>
      <trkpt lat="43.4816" lon="6.50004">
        <ele>150.7</ele>
        <time>2022-12-19T09:14:45Z</time>
      </trkpt>
      <trkpt lat="43.48166" lon="6.49995">
        <ele>150.8</ele>
        <time>2022-12-19T09:14:54Z</time>
      </trkpt>
      <trkpt lat="43.48172" lon="6.49984">
        <ele>150.9</ele>
        <time>2022-12-19T09:15:03Z</time>
      </trkpt>
      <trkpt lat="43.48177" lon="6.49973">
        <ele>151.2</ele>
        <time>2022-12-19T09:15:13Z</time>
      </trkpt>
      <trkpt lat="43.48181" lon="6.49962">
        <ele>151.6</ele>
        <time>2022-12-19T09:15:30Z</time>
      </trkpt>
      <trkpt lat="43.48186" lon="6.49951">
        <ele>151.8</ele>
        <time>2022-12-19T09:15:40Z</time>
      </trkpt>
      <trkpt lat="43.48192" lon="6.49941">
        <ele>151.9</ele>
        <time>2022-12-19T09:15:50Z</time>
      </trkpt>
      <trkpt lat="43.48199" lon="6.49931">
        <ele>152.3</ele>
        <time>2022-12-19T09:16:02Z</time>
      </trkpt>
      <trkpt lat="43.48203" lon="6.4992">
        <ele>152.8</ele>
        <time>2022-12-19T09:16:19Z</time>
      </trkpt>
      <trkpt lat="43.48206" lon="6.49907">
        <ele>153.4</ele>
        <time>2022-12-19T09:16:40Z</time>
      </trkpt>
      <trkpt lat="43.4821" lon="6.49895">
        <ele>152.8</ele>
        <time>2022-12-19T09:16:53Z</time>
      </trkpt>
      <trkpt lat="43.48215" lon="6.49884">
        <ele>153.7</ele>
        <time>2022-12-19T09:17:06Z</time>
      </trkpt>
      <trkpt lat="43.4822" lon="6.49873">
        <ele>153.7</ele>
        <time>2022-12-19T09:17:23Z</time>
      </trkpt>
      <trkpt lat="43.48226" lon="6.49862">
        <ele>154.2</ele>
        <time>2022-12-19T09:17:33Z</time>
      </trkpt>
      <trkpt lat="43.4823" lon="6.4985">
        <ele>154.6</ele>
        <time>2022-12-19T09:17:42Z</time>
      </trkpt>
      <trkpt lat="43.48235" lon="6.4984">
        <ele>154.9</ele>
        <time>2022-12-19T09:17:51Z</time>
      </trkpt>
      <trkpt lat="43.48241" lon="6.49829">
        <ele>155</ele>
        <time>2022-12-19T09:18:01Z</time>
      </trkpt>
      <trkpt lat="43.48245" lon="6.49817">
        <ele>155.2</ele>
        <time>2022-12-19T09:18:11Z</time>
      </trkpt>
      <trkpt lat="43.4825" lon="6.49805">
        <ele>155.8</ele>
        <time>2022-12-19T09:18:21Z</time>
      </trkpt>
      <trkpt lat="43.48254" lon="6.49793">
        <ele>156.1</ele>
        <time>2022-12-19T09:18:31Z</time>
      </trkpt>
      <trkpt lat="43.48259" lon="6.49783">
        <ele>156.3</ele>
        <time>2022-12-19T09:18:41Z</time>
      </trkpt>
      <trkpt lat="43.48266" lon="6.49773">
        <ele>156.3</ele>
        <time>2022-12-19T09:18:54Z</time>
      </trkpt>
      <trkpt lat="43.48273" lon="6.49765">
        <ele>157</ele>
        <time>2022-12-19T09:19:04Z</time>
      </trkpt>
      <trkpt lat="43.48281" lon="6.4976">
        <ele>157.4</ele>
        <time>2022-12-19T09:19:14Z</time>
      </trkpt>
      <trkpt lat="43.48289" lon="6.49751">
        <ele>157.6</ele>
        <time>2022-12-19T09:19:28Z</time>
      </trkpt>
      <trkpt lat="43.48296" lon="6.49743">
        <ele>158.8</ele>
        <time>2022-12-19T09:19:39Z</time>
      </trkpt>
      <trkpt lat="43.48302" lon="6.49734">
        <ele>157.6</ele>
        <time>2022-12-19T09:19:53Z</time>
      </trkpt>
      <trkpt lat="43.4831" lon="6.49726">
        <ele>157.6</ele>
        <time>2022-12-19T09:20:03Z</time>
      </trkpt>
      <trkpt lat="43.48318" lon="6.49717">
        <ele>158.3</ele>
        <time>2022-12-19T09:20:13Z</time>
      </trkpt>
      <trkpt lat="43.48325" lon="6.49709">
        <ele>158.7</ele>
        <time>2022-12-19T09:20:24Z</time>
      </trkpt>
      <trkpt lat="43.48333" lon="6.49701">
        <ele>159.4</ele>
        <time>2022-12-19T09:20:36Z</time>
      </trkpt>
      <trkpt lat="43.4834" lon="6.49693">
        <ele>159.8</ele>
        <time>2022-12-19T09:20:49Z</time>
      </trkpt>
      <trkpt lat="43.48347" lon="6.49684">
        <ele>161</ele>
        <time>2022-12-19T09:21:02Z</time>
      </trkpt>
      <trkpt lat="43.48354" lon="6.49675">
        <ele>159.6</ele>
        <time>2022-12-19T09:21:13Z</time>
      </trkpt>
      <trkpt lat="43.48361" lon="6.49666">
        <ele>160.2</ele>
        <time>2022-12-19T09:21:31Z</time>
      </trkpt>
      <trkpt lat="43.48368" lon="6.49657">
        <ele>159.9</ele>
        <time>2022-12-19T09:21:45Z</time>
      </trkpt>
      <trkpt lat="43.48374" lon="6.49648">
        <ele>160.6</ele>
        <time>2022-12-19T09:21:55Z</time>
      </trkpt>
      <trkpt lat="43.48381" lon="6.49639">
        <ele>161.9</ele>
        <time>2022-12-19T09:22:06Z</time>
      </trkpt>
      <trkpt lat="43.48387" lon="6.49629">
        <ele>162.3</ele>
        <time>2022-12-19T09:22:17Z</time>
      </trkpt>
      <trkpt lat="43.4839" lon="6.49618">
        <ele>161.6</ele>
        <time>2022-12-19T09:22:41Z</time>
      </trkpt>
      <trkpt lat="43.48395" lon="6.49607">
        <ele>161.6</ele>
        <time>2022-12-19T09:22:50Z</time>
      </trkpt>
      <trkpt lat="43.48402" lon="6.49597">
        <ele>161.8</ele>
        <time>2022-12-19T09:23:00Z</time>
      </trkpt>
      <trkpt lat="43.48407" lon="6.49587">
        <ele>163.1</ele>
        <time>2022-12-19T09:23:10Z</time>
      </trkpt>
      <trkpt lat="43.48412" lon="6.49575">
        <ele>164.2</ele>
        <time>2022-12-19T09:23:19Z</time>
      </trkpt>
      <trkpt lat="43.48415" lon="6.49563">
        <ele>164.4</ele>
        <time>2022-12-19T09:23:29Z</time>
      </trkpt>
      <trkpt lat="43.48419" lon="6.49551">
        <ele>164.3</ele>
        <time>2022-12-19T09:23:39Z</time>
      </trkpt>
      <trkpt lat="43.4842" lon="6.49537">
        <ele>164.9</ele>
        <time>2022-12-19T09:23:50Z</time>
      </trkpt>
      <trkpt lat="43.48429" lon="6.49531">
        <ele>164.8</ele>
        <time>2022-12-19T09:24:00Z</time>
      </trkpt>
      <trkpt lat="43.48437" lon="6.49537">
        <ele>165.3</ele>
        <time>2022-12-19T09:24:10Z</time>
      </trkpt>
      <trkpt lat="43.48446" lon="6.49542">
        <ele>167.8</ele>
        <time>2022-12-19T09:24:32Z</time>
      </trkpt>
      <trkpt lat="43.48445" lon="6.49529">
        <ele>167.1</ele>
        <time>2022-12-19T09:25:44Z</time>
      </trkpt>
      <trkpt lat="43.48442" lon="6.49517">
        <ele>167.1</ele>
        <time>2022-12-19T09:25:54Z</time>
      </trkpt>
      <trkpt lat="43.4844" lon="6.49504">
        <ele>167</ele>
        <time>2022-12-19T09:26:05Z</time>
      </trkpt>
      <trkpt lat="43.4844" lon="6.49491">
        <ele>167.1</ele>
        <time>2022-12-19T09:26:16Z</time>
      </trkpt>
      <trkpt lat="43.48441" lon="6.49477">
        <ele>167.3</ele>
        <time>2022-12-19T09:26:28Z</time>
      </trkpt>
      <trkpt lat="43.48438" lon="6.49464">
        <ele>167.5</ele>
        <time>2022-12-19T09:26:44Z</time>
      </trkpt>
      <trkpt lat="43.48435" lon="6.49452">
        <ele>167.6</ele>
        <time>2022-12-19T09:26:54Z</time>
      </trkpt>
      <trkpt lat="43.48432" lon="6.49439">
        <ele>167.6</ele>
        <time>2022-12-19T09:27:05Z</time>
      </trkpt>
      <trkpt lat="43.48429" lon="6.49426">
        <ele>167.6</ele>
        <time>2022-12-19T09:27:19Z</time>
      </trkpt>
      <trkpt lat="43.48428" lon="6.49413">
        <ele>168</ele>
        <time>2022-12-19T09:27:32Z</time>
      </trkpt>
      <trkpt lat="43.48428" lon="6.494">
        <ele>168.7</ele>
        <time>2022-12-19T09:27:44Z</time>
      </trkpt>
      <trkpt lat="43.4843" lon="6.49388">
        <ele>169</ele>
        <time>2022-12-19T09:27:54Z</time>
      </trkpt>
      <trkpt lat="43.48432" lon="6.49375">
        <ele>169.3</ele>
        <time>2022-12-19T09:28:04Z</time>
      </trkpt>
      <trkpt lat="43.48434" lon="6.49362">
        <ele>169.8</ele>
        <time>2022-12-19T09:28:15Z</time>
      </trkpt>
      <trkpt lat="43.48435" lon="6.49349">
        <ele>170.1</ele>
        <time>2022-12-19T09:28:25Z</time>
      </trkpt>
      <trkpt lat="43.48436" lon="6.49337">
        <ele>170.4</ele>
        <time>2022-12-19T09:28:36Z</time>
      </trkpt>
      <trkpt lat="43.48438" lon="6.49324">
        <ele>170.8</ele>
        <time>2022-12-19T09:28:47Z</time>
      </trkpt>
      <trkpt lat="43.4844" lon="6.49311">
        <ele>171.7</ele>
        <time>2022-12-19T09:29:04Z</time>
      </trkpt>
      <trkpt lat="43.48444" lon="6.493">
        <ele>172</ele>
        <time>2022-12-19T09:29:31Z</time>
      </trkpt>
      <trkpt lat="43.48449" lon="6.49288">
        <ele>172.2</ele>
        <time>2022-12-19T09:29:44Z</time>
      </trkpt>
      <trkpt lat="43.48453" lon="6.49276">
        <ele>172.3</ele>
        <time>2022-12-19T09:29:55Z</time>
      </trkpt>
      <trkpt lat="43.48457" lon="6.49264">
        <ele>172.5</ele>
        <time>2022-12-19T09:30:09Z</time>
      </trkpt>
      <trkpt lat="43.48461" lon="6.49252">
        <ele>172.5</ele>
        <time>2022-12-19T09:30:19Z</time>
      </trkpt>
      <trkpt lat="43.48467" lon="6.49242">
        <ele>173.6</ele>
        <time>2022-12-19T09:30:29Z</time>
      </trkpt>
      <trkpt lat="43.48472" lon="6.49231">
        <ele>174.7</ele>
        <time>2022-12-19T09:30:39Z</time>
      </trkpt>
      <trkpt lat="43.48475" lon="6.49219">
        <ele>174.9</ele>
        <time>2022-12-19T09:30:56Z</time>
      </trkpt>
      <trkpt lat="43.48478" lon="6.49206">
        <ele>175.7</ele>
        <time>2022-12-19T09:31:06Z</time>
      </trkpt>
      <trkpt lat="43.48481" lon="6.49194">
        <ele>176</ele>
        <time>2022-12-19T09:31:16Z</time>
      </trkpt>
      <trkpt lat="43.48486" lon="6.49182">
        <ele>177.2</ele>
        <time>2022-12-19T09:31:26Z</time>
      </trkpt>
      <trkpt lat="43.48488" lon="6.49169">
        <ele>178.4</ele>
        <time>2022-12-19T09:31:40Z</time>
      </trkpt>
      <trkpt lat="43.48492" lon="6.49158">
        <ele>179.5</ele>
        <time>2022-12-19T09:31:50Z</time>
      </trkpt>
      <trkpt lat="43.48496" lon="6.49147">
        <ele>180.1</ele>
        <time>2022-12-19T09:32:00Z</time>
      </trkpt>
      <trkpt lat="43.48492" lon="6.49136">
        <ele>181.6</ele>
        <time>2022-12-19T09:32:23Z</time>
      </trkpt>
      <trkpt lat="43.48486" lon="6.49126">
        <ele>182.7</ele>
        <time>2022-12-19T09:32:50Z</time>
      </trkpt>
      <trkpt lat="43.48488" lon="6.49113">
        <ele>183.3</ele>
        <time>2022-12-19T09:33:21Z</time>
      </trkpt>
      <trkpt lat="43.48492" lon="6.49101">
        <ele>182.4</ele>
        <time>2022-12-19T09:33:37Z</time>
      </trkpt>
      <trkpt lat="43.48486" lon="6.49092">
        <ele>186.9</ele>
        <time>2022-12-19T09:38:33Z</time>
      </trkpt>
      <trkpt lat="43.48477" lon="6.4909">
        <ele>188</ele>
        <time>2022-12-19T09:38:47Z</time>
      </trkpt>
      <trkpt lat="43.48468" lon="6.49087">
        <ele>189.1</ele>
        <time>2022-12-19T09:39:00Z</time>
      </trkpt>
      <trkpt lat="43.48458" lon="6.49087">
        <ele>190.2</ele>
        <time>2022-12-19T09:39:14Z</time>
      </trkpt>
      <trkpt lat="43.48449" lon="6.49085">
        <ele>192.1</ele>
        <time>2022-12-19T09:39:34Z</time>
      </trkpt>
      <trkpt lat="43.4844" lon="6.49085">
        <ele>192.8</ele>
        <time>2022-12-19T09:39:45Z</time>
      </trkpt>
      <trkpt lat="43.48431" lon="6.4908">
        <ele>193.7</ele>
        <time>2022-12-19T09:39:59Z</time>
      </trkpt>
      <trkpt lat="43.48421" lon="6.49077">
        <ele>194.6</ele>
        <time>2022-12-19T09:40:09Z</time>
      </trkpt>
      <trkpt lat="43.48412" lon="6.49075">
        <ele>195.3</ele>
        <time>2022-12-19T09:40:19Z</time>
      </trkpt>
      <trkpt lat="43.48404" lon="6.4907">
        <ele>196</ele>
        <time>2022-12-19T09:40:29Z</time>
      </trkpt>
      <trkpt lat="43.48396" lon="6.49063">
        <ele>196.9</ele>
        <time>2022-12-19T09:40:57Z</time>
      </trkpt>
      <trkpt lat="43.48387" lon="6.49062">
        <ele>197.1</ele>
        <time>2022-12-19T09:41:11Z</time>
      </trkpt>
      <trkpt lat="43.48377" lon="6.49062">
        <ele>197.4</ele>
        <time>2022-12-19T09:41:25Z</time>
      </trkpt>
      <trkpt lat="43.48369" lon="6.49068">
        <ele>197.8</ele>
        <time>2022-12-19T09:42:27Z</time>
      </trkpt>
      <trkpt lat="43.48362" lon="6.49077">
        <ele>198.3</ele>
        <time>2022-12-19T09:42:59Z</time>
      </trkpt>
      <trkpt lat="43.48356" lon="6.49086">
        <ele>199</ele>
        <time>2022-12-19T09:43:27Z</time>
      </trkpt>
      <trkpt lat="43.48346" lon="6.49089">
        <ele>199.4</ele>
        <time>2022-12-19T09:43:52Z</time>
      </trkpt>
      <trkpt lat="43.48338" lon="6.49095">
        <ele>199.8</ele>
        <time>2022-12-19T09:44:04Z</time>
      </trkpt>
      <trkpt lat="43.4833" lon="6.49101">
        <ele>200.3</ele>
        <time>2022-12-19T09:44:15Z</time>
      </trkpt>
      <trkpt lat="43.48323" lon="6.49109">
        <ele>200.7</ele>
        <time>2022-12-19T09:44:26Z</time>
      </trkpt>
      <trkpt lat="43.48317" lon="6.49119">
        <ele>201.2</ele>
        <time>2022-12-19T09:44:43Z</time>
      </trkpt>
      <trkpt lat="43.48308" lon="6.49124">
        <ele>201.5</ele>
        <time>2022-12-19T09:45:23Z</time>
      </trkpt>
      <trkpt lat="43.483" lon="6.49121">
        <ele>202.1</ele>
        <time>2022-12-19T09:46:02Z</time>
      </trkpt>
      <trkpt lat="43.48296" lon="6.49132">
        <ele>202.1</ele>
        <time>2022-12-19T09:46:45Z</time>
      </trkpt>
      <trkpt lat="43.48297" lon="6.49145">
        <ele>201.7</ele>
        <time>2022-12-19T09:47:08Z</time>
      </trkpt>
      <trkpt lat="43.48289" lon="6.49152">
        <ele>201.1</ele>
        <time>2022-12-19T09:47:23Z</time>
      </trkpt>
      <trkpt lat="43.4828" lon="6.49158">
        <ele>200.9</ele>
        <time>2022-12-19T09:47:34Z</time>
      </trkpt>
      <trkpt lat="43.48273" lon="6.49165">
        <ele>200.8</ele>
        <time>2022-12-19T09:47:42Z</time>
      </trkpt>
      <trkpt lat="43.48264" lon="6.49172">
        <ele>200.9</ele>
        <time>2022-12-19T09:47:51Z</time>
      </trkpt>
      <trkpt lat="43.48257" lon="6.4918">
        <ele>201.1</ele>
        <time>2022-12-19T09:48:03Z</time>
      </trkpt>
      <trkpt lat="43.48249" lon="6.49186">
        <ele>201.5</ele>
        <time>2022-12-19T09:48:20Z</time>
      </trkpt>
      <trkpt lat="43.48242" lon="6.49195">
        <ele>201.5</ele>
        <time>2022-12-19T09:48:30Z</time>
      </trkpt>
      <trkpt lat="43.48234" lon="6.49202">
        <ele>202</ele>
        <time>2022-12-19T09:48:40Z</time>
      </trkpt>
      <trkpt lat="43.48226" lon="6.49208">
        <ele>201.8</ele>
        <time>2022-12-19T09:48:59Z</time>
      </trkpt>
      <trkpt lat="43.48218" lon="6.49214">
        <ele>202.1</ele>
        <time>2022-12-19T09:49:09Z</time>
      </trkpt>
      <trkpt lat="43.48211" lon="6.49222">
        <ele>202.3</ele>
        <time>2022-12-19T09:49:20Z</time>
      </trkpt>
      <trkpt lat="43.48203" lon="6.4923">
        <ele>202.6</ele>
        <time>2022-12-19T09:49:30Z</time>
      </trkpt>
      <trkpt lat="43.48198" lon="6.49241">
        <ele>202.7</ele>
        <time>2022-12-19T09:49:45Z</time>
      </trkpt>
      <trkpt lat="43.4819" lon="6.49249">
        <ele>202.4</ele>
        <time>2022-12-19T09:50:19Z</time>
      </trkpt>
      <trkpt lat="43.48184" lon="6.49258">
        <ele>202.8</ele>
        <time>2022-12-19T09:51:14Z</time>
      </trkpt>
      <trkpt lat="43.48177" lon="6.49266">
        <ele>202.9</ele>
        <time>2022-12-19T09:51:28Z</time>
      </trkpt>
      <trkpt lat="43.48171" lon="6.49276">
        <ele>203.2</ele>
        <time>2022-12-19T09:51:39Z</time>
      </trkpt>
      <trkpt lat="43.48166" lon="6.49287">
        <ele>203.4</ele>
        <time>2022-12-19T09:52:00Z</time>
      </trkpt>
      <trkpt lat="43.48161" lon="6.49299">
        <ele>202.3</ele>
        <time>2022-12-19T09:52:13Z</time>
      </trkpt>
      <trkpt lat="43.48157" lon="6.4931">
        <ele>203.8</ele>
        <time>2022-12-19T09:52:26Z</time>
      </trkpt>
      <trkpt lat="43.48151" lon="6.49321">
        <ele>203.2</ele>
        <time>2022-12-19T09:52:40Z</time>
      </trkpt>
      <trkpt lat="43.48145" lon="6.49332">
        <ele>203.3</ele>
        <time>2022-12-19T09:52:50Z</time>
      </trkpt>
      <trkpt lat="43.4814" lon="6.49341">
        <ele>203.2</ele>
        <time>2022-12-19T09:53:05Z</time>
      </trkpt>
      <trkpt lat="43.48133" lon="6.49351">
        <ele>203.3</ele>
        <time>2022-12-19T09:53:16Z</time>
      </trkpt>
      <trkpt lat="43.48126" lon="6.4936">
        <ele>203.3</ele>
        <time>2022-12-19T09:53:26Z</time>
      </trkpt>
      <trkpt lat="43.48119" lon="6.49369">
        <ele>203</ele>
        <time>2022-12-19T09:53:36Z</time>
      </trkpt>
      <trkpt lat="43.48112" lon="6.49378">
        <ele>203.1</ele>
        <time>2022-12-19T09:53:46Z</time>
      </trkpt>
      <trkpt lat="43.48107" lon="6.49388">
        <ele>203.1</ele>
        <time>2022-12-19T09:53:57Z</time>
      </trkpt>
      <trkpt lat="43.48101" lon="6.49399">
        <ele>203.3</ele>
        <time>2022-12-19T09:54:12Z</time>
      </trkpt>
      <trkpt lat="43.48093" lon="6.49407">
        <ele>203.4</ele>
        <time>2022-12-19T09:54:22Z</time>
      </trkpt>
      <trkpt lat="43.48089" lon="6.49417">
        <ele>203.7</ele>
        <time>2022-12-19T09:54:35Z</time>
      </trkpt>
      <trkpt lat="43.4808" lon="6.49423">
        <ele>204.1</ele>
        <time>2022-12-19T09:55:05Z</time>
      </trkpt>
      <trkpt lat="43.48074" lon="6.49431">
        <ele>203.8</ele>
        <time>2022-12-19T09:55:22Z</time>
      </trkpt>
      <trkpt lat="43.48065" lon="6.49438">
        <ele>203.6</ele>
        <time>2022-12-19T09:55:40Z</time>
      </trkpt>
      <trkpt lat="43.48057" lon="6.49445">
        <ele>203.4</ele>
        <time>2022-12-19T09:55:53Z</time>
      </trkpt>
      <trkpt lat="43.48049" lon="6.49451">
        <ele>203</ele>
        <time>2022-12-19T09:56:06Z</time>
      </trkpt>
      <trkpt lat="43.4804" lon="6.49448">
        <ele>202.8</ele>
        <time>2022-12-19T09:56:37Z</time>
      </trkpt>
      <trkpt lat="43.48038" lon="6.49436">
        <ele>204.9</ele>
        <time>2022-12-19T09:57:05Z</time>
      </trkpt>
      <trkpt lat="43.48035" lon="6.49424">
        <ele>207.2</ele>
        <time>2022-12-19T09:57:23Z</time>
      </trkpt>
      <trkpt lat="43.48033" lon="6.49411">
        <ele>209.7</ele>
        <time>2022-12-19T09:57:46Z</time>
      </trkpt>
      <trkpt lat="43.48029" lon="6.49399">
        <ele>212.9</ele>
        <time>2022-12-19T09:58:28Z</time>
      </trkpt>
      <trkpt lat="43.48029" lon="6.49387">
        <ele>213.9</ele>
        <time>2022-12-19T09:58:48Z</time>
      </trkpt>
      <trkpt lat="43.48027" lon="6.49374">
        <ele>215.7</ele>
        <time>2022-12-19T09:59:04Z</time>
      </trkpt>
      <trkpt lat="43.48023" lon="6.49363">
        <ele>217.8</ele>
        <time>2022-12-19T09:59:21Z</time>
      </trkpt>
      <trkpt lat="43.4802" lon="6.4935">
        <ele>219.7</ele>
        <time>2022-12-19T09:59:37Z</time>
      </trkpt>
      <trkpt lat="43.48016" lon="6.49338">
        <ele>221.2</ele>
        <time>2022-12-19T09:59:51Z</time>
      </trkpt>
      <trkpt lat="43.48016" lon="6.49326">
        <ele>223.3</ele>
        <time>2022-12-19T10:00:24Z</time>
      </trkpt>
      <trkpt lat="43.48008" lon="6.49332">
        <ele>222.9</ele>
        <time>2022-12-19T10:02:15Z</time>
      </trkpt>
      <trkpt lat="43.48" lon="6.49338">
        <ele>222.6</ele>
        <time>2022-12-19T10:02:30Z</time>
      </trkpt>
      <trkpt lat="43.47991" lon="6.49343">
        <ele>222.1</ele>
        <time>2022-12-19T10:02:42Z</time>
      </trkpt>
      <trkpt lat="43.47983" lon="6.49349">
        <ele>221.6</ele>
        <time>2022-12-19T10:02:53Z</time>
      </trkpt>
      <trkpt lat="43.47975" lon="6.49355">
        <ele>220.8</ele>
        <time>2022-12-19T10:03:04Z</time>
      </trkpt>
      <trkpt lat="43.47967" lon="6.49361">
        <ele>220</ele>
        <time>2022-12-19T10:03:24Z</time>
      </trkpt>
      <trkpt lat="43.47958" lon="6.49359">
        <ele>219.2</ele>
        <time>2022-12-19T10:03:46Z</time>
      </trkpt>
      <trkpt lat="43.47952" lon="6.49349">
        <ele>219.9</ele>
        <time>2022-12-19T10:06:35Z</time>
      </trkpt>
      <trkpt lat="43.47946" lon="6.4934">
        <ele>220.8</ele>
        <time>2022-12-19T10:06:58Z</time>
      </trkpt>
      <trkpt lat="43.47938" lon="6.49332">
        <ele>220.9</ele>
        <time>2022-12-19T10:07:14Z</time>
      </trkpt>
      <trkpt lat="43.47933" lon="6.49322">
        <ele>221</ele>
        <time>2022-12-19T10:07:24Z</time>
      </trkpt>
      <trkpt lat="43.47929" lon="6.49311">
        <ele>221.3</ele>
        <time>2022-12-19T10:07:39Z</time>
      </trkpt>
      <trkpt lat="43.47923" lon="6.493">
        <ele>221.1</ele>
        <time>2022-12-19T10:07:50Z</time>
      </trkpt>
      <trkpt lat="43.4792" lon="6.49287">
        <ele>221</ele>
        <time>2022-12-19T10:08:05Z</time>
      </trkpt>
      <trkpt lat="43.47917" lon="6.49275">
        <ele>220.5</ele>
        <time>2022-12-19T10:08:23Z</time>
      </trkpt>
      <trkpt lat="43.47911" lon="6.49266">
        <ele>219.6</ele>
        <time>2022-12-19T10:08:35Z</time>
      </trkpt>
      <trkpt lat="43.47902" lon="6.49271">
        <ele>218.2</ele>
        <time>2022-12-19T10:09:00Z</time>
      </trkpt>
      <trkpt lat="43.47894" lon="6.49277">
        <ele>217.5</ele>
        <time>2022-12-19T10:09:11Z</time>
      </trkpt>
      <trkpt lat="43.47886" lon="6.49284">
        <ele>217</ele>
        <time>2022-12-19T10:09:29Z</time>
      </trkpt>
      <trkpt lat="43.47879" lon="6.49293">
        <ele>216.8</ele>
        <time>2022-12-19T10:09:40Z</time>
      </trkpt>
      <trkpt lat="43.47872" lon="6.49301">
        <ele>216.6</ele>
        <time>2022-12-19T10:09:51Z</time>
      </trkpt>
      <trkpt lat="43.47863" lon="6.49297">
        <ele>216</ele>
        <time>2022-12-19T10:10:08Z</time>
      </trkpt>
      <trkpt lat="43.47854" lon="6.49296">
        <ele>215.6</ele>
        <time>2022-12-19T10:10:35Z</time>
      </trkpt>
      <trkpt lat="43.47846" lon="6.49289">
        <ele>214.6</ele>
        <time>2022-12-19T10:11:07Z</time>
      </trkpt>
      <trkpt lat="43.47838" lon="6.49293">
        <ele>214.6</ele>
        <time>2022-12-19T10:11:26Z</time>
      </trkpt>
      <trkpt lat="43.47829" lon="6.49298">
        <ele>214.2</ele>
        <time>2022-12-19T10:11:41Z</time>
      </trkpt>
      <trkpt lat="43.4782" lon="6.49303">
        <ele>214.9</ele>
        <time>2022-12-19T10:12:00Z</time>
      </trkpt>
      <trkpt lat="43.47812" lon="6.49308">
        <ele>214.1</ele>
        <time>2022-12-19T10:12:12Z</time>
      </trkpt>
      <trkpt lat="43.47803" lon="6.49312">
        <ele>214.6</ele>
        <time>2022-12-19T10:12:23Z</time>
      </trkpt>
      <trkpt lat="43.47795" lon="6.49317">
        <ele>214.2</ele>
        <time>2022-12-19T10:12:38Z</time>
      </trkpt>
      <trkpt lat="43.47786" lon="6.49323">
        <ele>213.5</ele>
        <time>2022-12-19T10:12:52Z</time>
      </trkpt>
      <trkpt lat="43.47778" lon="6.49326">
        <ele>213</ele>
        <time>2022-12-19T10:13:40Z</time>
      </trkpt>
      <trkpt lat="43.4777" lon="6.49333">
        <ele>212.7</ele>
        <time>2022-12-19T10:13:56Z</time>
      </trkpt>
      <trkpt lat="43.47762" lon="6.4934">
        <ele>212.1</ele>
        <time>2022-12-19T10:14:13Z</time>
      </trkpt>
      <trkpt lat="43.47754" lon="6.49345">
        <ele>211.7</ele>
        <time>2022-12-19T10:14:24Z</time>
      </trkpt>
      <trkpt lat="43.47746" lon="6.49352">
        <ele>210.9</ele>
        <time>2022-12-19T10:14:59Z</time>
      </trkpt>
      <trkpt lat="43.47738" lon="6.49359">
        <ele>210.6</ele>
        <time>2022-12-19T10:15:09Z</time>
      </trkpt>
      <trkpt lat="43.4773" lon="6.49364">
        <ele>210.3</ele>
        <time>2022-12-19T10:15:19Z</time>
      </trkpt>
      <trkpt lat="43.47725" lon="6.49375">
        <ele>210.5</ele>
        <time>2022-12-19T10:15:45Z</time>
      </trkpt>
      <trkpt lat="43.47725" lon="6.49388">
        <ele>211.9</ele>
        <time>2022-12-19T10:16:13Z</time>
      </trkpt>
      <trkpt lat="43.47726" lon="6.494">
        <ele>211.8</ele>
        <time>2022-12-19T10:16:27Z</time>
      </trkpt>
      <trkpt lat="43.47729" lon="6.49412">
        <ele>212.8</ele>
        <time>2022-12-19T10:16:45Z</time>
      </trkpt>
      <trkpt lat="43.47732" lon="6.49424">
        <ele>213.5</ele>
        <time>2022-12-19T10:16:59Z</time>
      </trkpt>
      <trkpt lat="43.47728" lon="6.49436">
        <ele>214</ele>
        <time>2022-12-19T10:17:39Z</time>
      </trkpt>
      <trkpt lat="43.47721" lon="6.49442">
        <ele>213.2</ele>
        <time>2022-12-19T10:18:40Z</time>
      </trkpt>
      <trkpt lat="43.47718" lon="6.49455">
        <ele>213.3</ele>
        <time>2022-12-19T10:19:06Z</time>
      </trkpt>
      <trkpt lat="43.47709" lon="6.49453">
        <ele>213.1</ele>
        <time>2022-12-19T10:19:56Z</time>
      </trkpt>
      <trkpt lat="43.477" lon="6.49455">
        <ele>213.5</ele>
        <time>2022-12-19T10:20:19Z</time>
      </trkpt>
      <trkpt lat="43.47691" lon="6.49455">
        <ele>212.5</ele>
        <time>2022-12-19T10:20:38Z</time>
      </trkpt>
      <trkpt lat="43.47681" lon="6.49457">
        <ele>213.4</ele>
        <time>2022-12-19T10:20:57Z</time>
      </trkpt>
      <trkpt lat="43.47673" lon="6.49461">
        <ele>212.5</ele>
        <time>2022-12-19T10:21:12Z</time>
      </trkpt>
      <trkpt lat="43.47664" lon="6.4946">
        <ele>210.8</ele>
        <time>2022-12-19T10:21:27Z</time>
      </trkpt>
      <trkpt lat="43.47654" lon="6.49462">
        <ele>210.6</ele>
        <time>2022-12-19T10:22:28Z</time>
      </trkpt>
      <trkpt lat="43.47645" lon="6.49466">
        <ele>212.1</ele>
        <time>2022-12-19T10:23:03Z</time>
      </trkpt>
      <trkpt lat="43.47636" lon="6.49466">
        <ele>212</ele>
        <time>2022-12-19T10:23:15Z</time>
      </trkpt>
      <trkpt lat="43.47627" lon="6.49461">
        <ele>211.9</ele>
        <time>2022-12-19T10:23:33Z</time>
      </trkpt>
      <trkpt lat="43.47618" lon="6.49457">
        <ele>211.7</ele>
        <time>2022-12-19T10:23:46Z</time>
      </trkpt>
      <trkpt lat="43.47608" lon="6.49455">
        <ele>211.8</ele>
        <time>2022-12-19T10:23:58Z</time>
      </trkpt>
      <trkpt lat="43.47606" lon="6.49443">
        <ele>211.9</ele>
        <time>2022-12-19T10:24:12Z</time>
      </trkpt>
      <trkpt lat="43.47596" lon="6.49439">
        <ele>211.8</ele>
        <time>2022-12-19T10:24:23Z</time>
      </trkpt>
      <trkpt lat="43.47588" lon="6.49434">
        <ele>211.9</ele>
        <time>2022-12-19T10:24:35Z</time>
      </trkpt>
      <trkpt lat="43.47579" lon="6.49438">
        <ele>211.8</ele>
        <time>2022-12-19T10:24:50Z</time>
      </trkpt>
      <trkpt lat="43.4757" lon="6.49438">
        <ele>212</ele>
        <time>2022-12-19T10:25:22Z</time>
      </trkpt>
      <trkpt lat="43.4757" lon="6.49425">
        <ele>212.1</ele>
        <time>2022-12-19T10:25:49Z</time>
      </trkpt>
      <trkpt lat="43.47561" lon="6.49422">
        <ele>212.3</ele>
        <time>2022-12-19T10:26:02Z</time>
      </trkpt>
      <trkpt lat="43.47555" lon="6.49431">
        <ele>212.5</ele>
        <time>2022-12-19T10:28:02Z</time>
      </trkpt>
      <trkpt lat="43.4755" lon="6.49442">
        <ele>213</ele>
        <time>2022-12-19T10:28:26Z</time>
      </trkpt>
      <trkpt lat="43.47545" lon="6.49453">
        <ele>215.5</ele>
        <time>2022-12-19T10:28:39Z</time>
      </trkpt>
      <trkpt lat="43.47538" lon="6.4946">
        <ele>214.6</ele>
        <time>2022-12-19T10:28:56Z</time>
      </trkpt>
      <trkpt lat="43.47532" lon="6.49472">
        <ele>213.4</ele>
        <time>2022-12-19T10:30:12Z</time>
      </trkpt>
      <trkpt lat="43.47523" lon="6.49474">
        <ele>212.6</ele>
        <time>2022-12-19T10:30:21Z</time>
      </trkpt>
      <trkpt lat="43.47514" lon="6.49475">
        <ele>210.2</ele>
        <time>2022-12-19T10:30:32Z</time>
      </trkpt>
      <trkpt lat="43.47504" lon="6.49475">
        <ele>209.6</ele>
        <time>2022-12-19T10:30:46Z</time>
      </trkpt>
      <trkpt lat="43.47495" lon="6.49473">
        <ele>208.8</ele>
        <time>2022-12-19T10:30:57Z</time>
      </trkpt>
      <trkpt lat="43.47485" lon="6.49471">
        <ele>209</ele>
        <time>2022-12-19T10:31:07Z</time>
      </trkpt>
      <trkpt lat="43.47476" lon="6.49467">
        <ele>208.8</ele>
        <time>2022-12-19T10:31:18Z</time>
      </trkpt>
      <trkpt lat="43.47467" lon="6.49466">
        <ele>209.1</ele>
        <time>2022-12-19T10:31:31Z</time>
      </trkpt>
      <trkpt lat="43.47458" lon="6.49469">
        <ele>209.3</ele>
        <time>2022-12-19T10:31:43Z</time>
      </trkpt>
      <trkpt lat="43.47448" lon="6.49472">
        <ele>209.4</ele>
        <time>2022-12-19T10:31:53Z</time>
      </trkpt>
      <trkpt lat="43.47438" lon="6.49475">
        <ele>208.8</ele>
        <time>2022-12-19T10:32:12Z</time>
      </trkpt>
      <trkpt lat="43.47429" lon="6.49478">
        <ele>209.1</ele>
        <time>2022-12-19T10:32:22Z</time>
      </trkpt>
      <trkpt lat="43.4742" lon="6.4948">
        <ele>208.9</ele>
        <time>2022-12-19T10:32:37Z</time>
      </trkpt>
      <trkpt lat="43.4741" lon="6.49477">
        <ele>207.8</ele>
        <time>2022-12-19T10:33:03Z</time>
      </trkpt>
      <trkpt lat="43.47401" lon="6.49475">
        <ele>207.4</ele>
        <time>2022-12-19T10:33:13Z</time>
      </trkpt>
      <trkpt lat="43.47396" lon="6.49486">
        <ele>206.7</ele>
        <time>2022-12-19T10:33:34Z</time>
      </trkpt>
      <trkpt lat="43.47387" lon="6.4948">
        <ele>207.7</ele>
        <time>2022-12-19T10:35:16Z</time>
      </trkpt>
      <trkpt lat="43.47378" lon="6.49483">
        <ele>206.6</ele>
        <time>2022-12-19T10:35:29Z</time>
      </trkpt>
      <trkpt lat="43.47369" lon="6.49483">
        <ele>206.4</ele>
        <time>2022-12-19T10:35:40Z</time>
      </trkpt>
      <trkpt lat="43.4736" lon="6.49481">
        <ele>206.1</ele>
        <time>2022-12-19T10:35:58Z</time>
      </trkpt>
      <trkpt lat="43.4735" lon="6.4948">
        <ele>206</ele>
        <time>2022-12-19T10:36:11Z</time>
      </trkpt>
      <trkpt lat="43.47346" lon="6.49468">
        <ele>205.8</ele>
        <time>2022-12-19T10:36:22Z</time>
      </trkpt>
      <trkpt lat="43.47344" lon="6.49456">
        <ele>205.5</ele>
        <time>2022-12-19T10:36:31Z</time>
      </trkpt>
      <trkpt lat="43.47341" lon="6.49443">
        <ele>205.5</ele>
        <time>2022-12-19T10:36:40Z</time>
      </trkpt>
      <trkpt lat="43.47338" lon="6.49431">
        <ele>205.3</ele>
        <time>2022-12-19T10:36:52Z</time>
      </trkpt>
      <trkpt lat="43.47336" lon="6.49419">
        <ele>205</ele>
        <time>2022-12-19T10:37:05Z</time>
      </trkpt>
      <trkpt lat="43.47334" lon="6.49407">
        <ele>204</ele>
        <time>2022-12-19T10:37:14Z</time>
      </trkpt>
      <trkpt lat="43.47327" lon="6.49398">
        <ele>203.7</ele>
        <time>2022-12-19T10:37:39Z</time>
      </trkpt>
      <trkpt lat="43.47328" lon="6.49385">
        <ele>202.6</ele>
        <time>2022-12-19T10:38:02Z</time>
      </trkpt>
      <trkpt lat="43.47327" lon="6.49373">
        <ele>201.9</ele>
        <time>2022-12-19T10:38:18Z</time>
      </trkpt>
      <trkpt lat="43.47323" lon="6.49361">
        <ele>201.2</ele>
        <time>2022-12-19T10:38:31Z</time>
      </trkpt>
      <trkpt lat="43.47321" lon="6.49348">
        <ele>200.1</ele>
        <time>2022-12-19T10:38:44Z</time>
      </trkpt>
      <trkpt lat="43.47314" lon="6.49339">
        <ele>198.9</ele>
        <time>2022-12-19T10:39:06Z</time>
      </trkpt>
      <trkpt lat="43.4731" lon="6.49328">
        <ele>198.6</ele>
        <time>2022-12-19T10:39:25Z</time>
      </trkpt>
      <trkpt lat="43.47309" lon="6.49315">
        <ele>197.2</ele>
        <time>2022-12-19T10:39:37Z</time>
      </trkpt>
      <trkpt lat="43.47309" lon="6.49302">
        <ele>196.5</ele>
        <time>2022-12-19T10:39:45Z</time>
      </trkpt>
      <trkpt lat="43.47306" lon="6.49291">
        <ele>195.5</ele>
        <time>2022-12-19T10:39:59Z</time>
      </trkpt>
      <trkpt lat="43.47307" lon="6.49278">
        <ele>194.6</ele>
        <time>2022-12-19T10:40:14Z</time>
      </trkpt>
      <trkpt lat="43.47308" lon="6.49264">
        <ele>195.2</ele>
        <time>2022-12-19T10:40:24Z</time>
      </trkpt>
      <trkpt lat="43.47308" lon="6.49251">
        <ele>193.7</ele>
        <time>2022-12-19T10:40:35Z</time>
      </trkpt>
      <trkpt lat="43.47307" lon="6.49239">
        <ele>192.4</ele>
        <time>2022-12-19T10:40:46Z</time>
      </trkpt>
      <trkpt lat="43.47307" lon="6.49226">
        <ele>190.7</ele>
        <time>2022-12-19T10:40:59Z</time>
      </trkpt>
      <trkpt lat="43.47306" lon="6.49213">
        <ele>188.3</ele>
        <time>2022-12-19T10:41:12Z</time>
      </trkpt>
      <trkpt lat="43.47303" lon="6.49201">
        <ele>187.2</ele>
        <time>2022-12-19T10:41:24Z</time>
      </trkpt>
      <trkpt lat="43.47301" lon="6.49187">
        <ele>186.6</ele>
        <time>2022-12-19T10:41:36Z</time>
      </trkpt>
      <trkpt lat="43.47298" lon="6.49175">
        <ele>186.2</ele>
        <time>2022-12-19T10:41:49Z</time>
      </trkpt>
      <trkpt lat="43.47297" lon="6.49162">
        <ele>184.8</ele>
        <time>2022-12-19T10:42:03Z</time>
      </trkpt>
      <trkpt lat="43.47294" lon="6.4915">
        <ele>184.4</ele>
        <time>2022-12-19T10:42:25Z</time>
      </trkpt>
      <trkpt lat="43.47289" lon="6.4914">
        <ele>182.1</ele>
        <time>2022-12-19T10:42:46Z</time>
      </trkpt>
      <trkpt lat="43.4728" lon="6.49144">
        <ele>182.9</ele>
        <time>2022-12-19T10:43:28Z</time>
      </trkpt>
      <trkpt lat="43.47271" lon="6.49147">
        <ele>183.2</ele>
        <time>2022-12-19T10:43:47Z</time>
      </trkpt>
      <trkpt lat="43.47261" lon="6.4915">
        <ele>183.4</ele>
        <time>2022-12-19T10:44:06Z</time>
      </trkpt>
      <trkpt lat="43.47252" lon="6.4915">
        <ele>183.6</ele>
        <time>2022-12-19T10:44:19Z</time>
      </trkpt>
      <trkpt lat="43.47244" lon="6.49155">
        <ele>183.9</ele>
        <time>2022-12-19T10:44:35Z</time>
      </trkpt>
      <trkpt lat="43.47235" lon="6.4916">
        <ele>183.2</ele>
        <time>2022-12-19T10:44:48Z</time>
      </trkpt>
      <trkpt lat="43.47228" lon="6.49168">
        <ele>184.1</ele>
        <time>2022-12-19T10:45:00Z</time>
      </trkpt>
      <trkpt lat="43.4722" lon="6.49175">
        <ele>184</ele>
        <time>2022-12-19T10:45:11Z</time>
      </trkpt>
      <trkpt lat="43.47211" lon="6.49177">
        <ele>184.4</ele>
        <time>2022-12-19T10:45:34Z</time>
      </trkpt>
      <trkpt lat="43.47203" lon="6.49183">
        <ele>185.4</ele>
        <time>2022-12-19T10:46:00Z</time>
      </trkpt>
      <trkpt lat="43.47195" lon="6.4919">
        <ele>185.2</ele>
        <time>2022-12-19T10:46:12Z</time>
      </trkpt>
      <trkpt lat="43.47185" lon="6.49192">
        <ele>183.7</ele>
        <time>2022-12-19T10:46:26Z</time>
      </trkpt>
      <trkpt lat="43.47176" lon="6.49195">
        <ele>184.6</ele>
        <time>2022-12-19T10:46:40Z</time>
      </trkpt>
      <trkpt lat="43.47168" lon="6.49201">
        <ele>185.2</ele>
        <time>2022-12-19T10:46:52Z</time>
      </trkpt>
      <trkpt lat="43.47159" lon="6.49206">
        <ele>184.9</ele>
        <time>2022-12-19T10:47:04Z</time>
      </trkpt>
      <trkpt lat="43.4715" lon="6.49207">
        <ele>185.1</ele>
        <time>2022-12-19T10:47:19Z</time>
      </trkpt>
      <trkpt lat="43.47141" lon="6.49205">
        <ele>185.1</ele>
        <time>2022-12-19T10:47:30Z</time>
      </trkpt>
      <trkpt lat="43.47131" lon="6.49208">
        <ele>183.6</ele>
        <time>2022-12-19T10:47:41Z</time>
      </trkpt>
      <trkpt lat="43.47123" lon="6.49215">
        <ele>183</ele>
        <time>2022-12-19T10:47:50Z</time>
      </trkpt>
      <trkpt lat="43.47114" lon="6.49217">
        <ele>183.3</ele>
        <time>2022-12-19T10:47:59Z</time>
      </trkpt>
      <trkpt lat="43.47119" lon="6.49228">
        <ele>183.4</ele>
        <time>2022-12-19T10:48:21Z</time>
      </trkpt>
      <trkpt lat="43.47111" lon="6.4922">
        <ele>183.8</ele>
        <time>2022-12-19T10:49:38Z</time>
      </trkpt>
      <trkpt lat="43.47102" lon="6.49217">
        <ele>183.4</ele>
        <time>2022-12-19T10:49:47Z</time>
      </trkpt>
      <trkpt lat="43.47094" lon="6.49213">
        <ele>183.7</ele>
        <time>2022-12-19T10:52:05Z</time>
      </trkpt>
      <trkpt lat="43.47087" lon="6.49204">
        <ele>183.3</ele>
        <time>2022-12-19T10:52:42Z</time>
      </trkpt>
      <trkpt lat="43.47083" lon="6.49192">
        <ele>183.4</ele>
        <time>2022-12-19T10:52:55Z</time>
      </trkpt>
      <trkpt lat="43.47079" lon="6.4918">
        <ele>183.4</ele>
        <time>2022-12-19T10:53:05Z</time>
      </trkpt>
      <trkpt lat="43.47077" lon="6.49167">
        <ele>183.5</ele>
        <time>2022-12-19T10:53:16Z</time>
      </trkpt>
      <trkpt lat="43.47067" lon="6.49168">
        <ele>183.7</ele>
        <time>2022-12-19T10:53:33Z</time>
      </trkpt>
      <trkpt lat="43.4706" lon="6.49176">
        <ele>184.7</ele>
        <time>2022-12-19T10:53:48Z</time>
      </trkpt>
      <trkpt lat="43.47055" lon="6.49187">
        <ele>184.8</ele>
        <time>2022-12-19T10:54:03Z</time>
      </trkpt>
      <trkpt lat="43.4705" lon="6.49198">
        <ele>185.8</ele>
        <time>2022-12-19T10:54:21Z</time>
      </trkpt>
      <trkpt lat="43.47044" lon="6.49207">
        <ele>186.4</ele>
        <time>2022-12-19T10:54:35Z</time>
      </trkpt>
      <trkpt lat="43.47034" lon="6.49212">
        <ele>187.4</ele>
        <time>2022-12-19T10:54:52Z</time>
      </trkpt>
      <trkpt lat="43.47027" lon="6.4922">
        <ele>188.8</ele>
        <time>2022-12-19T10:55:10Z</time>
      </trkpt>
      <trkpt lat="43.4702" lon="6.49228">
        <ele>189.1</ele>
        <time>2022-12-19T10:55:26Z</time>
      </trkpt>
      <trkpt lat="43.47013" lon="6.49236">
        <ele>191</ele>
        <time>2022-12-19T10:55:52Z</time>
      </trkpt>
      <trkpt lat="43.47005" lon="6.49244">
        <ele>191</ele>
        <time>2022-12-19T10:56:07Z</time>
      </trkpt>
      <trkpt lat="43.46997" lon="6.49251">
        <ele>191.8</ele>
        <time>2022-12-19T10:56:22Z</time>
      </trkpt>
      <trkpt lat="43.4699" lon="6.49259">
        <ele>192.7</ele>
        <time>2022-12-19T10:56:36Z</time>
      </trkpt>
      <trkpt lat="43.46984" lon="6.49268">
        <ele>193.5</ele>
        <time>2022-12-19T10:56:49Z</time>
      </trkpt>
      <trkpt lat="43.46977" lon="6.49278">
        <ele>195.3</ele>
        <time>2022-12-19T10:57:06Z</time>
      </trkpt>
      <trkpt lat="43.46971" lon="6.49287">
        <ele>194.6</ele>
        <time>2022-12-19T10:57:25Z</time>
      </trkpt>
      <trkpt lat="43.46965" lon="6.49296">
        <ele>193.6</ele>
        <time>2022-12-19T10:57:39Z</time>
      </trkpt>
      <trkpt lat="43.4696" lon="6.49307">
        <ele>191.8</ele>
        <time>2022-12-19T10:57:53Z</time>
      </trkpt>
      <trkpt lat="43.46954" lon="6.49317">
        <ele>196</ele>
        <time>2022-12-19T10:58:06Z</time>
      </trkpt>
      <trkpt lat="43.46948" lon="6.49327">
        <ele>196.6</ele>
        <time>2022-12-19T10:58:20Z</time>
      </trkpt>
      <trkpt lat="43.46942" lon="6.49337">
        <ele>196.9</ele>
        <time>2022-12-19T10:58:35Z</time>
      </trkpt>
      <trkpt lat="43.46935" lon="6.49346">
        <ele>197</ele>
        <time>2022-12-19T10:58:48Z</time>
      </trkpt>
      <trkpt lat="43.46931" lon="6.49358">
        <ele>200.5</ele>
        <time>2022-12-19T10:59:01Z</time>
      </trkpt>
      <trkpt lat="43.46925" lon="6.49367">
        <ele>202.3</ele>
        <time>2022-12-19T10:59:17Z</time>
      </trkpt>
      <trkpt lat="43.4692" lon="6.49379">
        <ele>203.8</ele>
        <time>2022-12-19T10:59:34Z</time>
      </trkpt>
      <trkpt lat="43.46912" lon="6.49386">
        <ele>205.2</ele>
        <time>2022-12-19T10:59:49Z</time>
      </trkpt>
      <trkpt lat="43.46903" lon="6.49389">
        <ele>206.6</ele>
        <time>2022-12-19T11:00:06Z</time>
      </trkpt>
      <trkpt lat="43.46895" lon="6.49385">
        <ele>207.1</ele>
        <time>2022-12-19T11:00:24Z</time>
      </trkpt>
      <trkpt lat="43.46887" lon="6.49378">
        <ele>207.8</ele>
        <time>2022-12-19T11:00:37Z</time>
      </trkpt>
      <trkpt lat="43.4688" lon="6.4937">
        <ele>208.6</ele>
        <time>2022-12-19T11:00:49Z</time>
      </trkpt>
      <trkpt lat="43.46872" lon="6.49362">
        <ele>209.4</ele>
        <time>2022-12-19T11:01:01Z</time>
      </trkpt>
      <trkpt lat="43.46864" lon="6.49355">
        <ele>210.2</ele>
        <time>2022-12-19T11:01:13Z</time>
      </trkpt>
      <trkpt lat="43.46856" lon="6.49348">
        <ele>210.7</ele>
        <time>2022-12-19T11:01:24Z</time>
      </trkpt>
      <trkpt lat="43.46848" lon="6.49341">
        <ele>210.8</ele>
        <time>2022-12-19T11:01:35Z</time>
      </trkpt>
      <trkpt lat="43.4684" lon="6.49335">
        <ele>211.3</ele>
        <time>2022-12-19T11:01:48Z</time>
      </trkpt>
      <trkpt lat="43.46837" lon="6.49323">
        <ele>210.8</ele>
        <time>2022-12-19T11:02:42Z</time>
      </trkpt>
      <trkpt lat="43.46829" lon="6.49317">
        <ele>210.9</ele>
        <time>2022-12-19T11:13:01Z</time>
      </trkpt>
      <trkpt lat="43.46837" lon="6.49323">
        <ele>211.2</ele>
        <time>2022-12-19T11:19:07Z</time>
      </trkpt>
      <trkpt lat="43.46829" lon="6.4933">
        <ele>212.3</ele>
        <time>2022-12-19T11:37:27Z</time>
      </trkpt>
      <trkpt lat="43.46836" lon="6.49322">
        <ele>210</ele>
        <time>2022-12-19T11:48:25Z</time>
      </trkpt>
      <trkpt lat="43.46844" lon="6.49315">
        <ele>207.1</ele>
        <time>2022-12-19T11:56:03Z</time>
      </trkpt>
      <trkpt lat="43.46846" lon="6.49301">
        <ele>207.5</ele>
        <time>2022-12-19T11:56:51Z</time>
      </trkpt>
      <trkpt lat="43.46848" lon="6.49288">
        <ele>207.6</ele>
        <time>2022-12-19T11:57:05Z</time>
      </trkpt>
      <trkpt lat="43.4685" lon="6.49275">
        <ele>205.7</ele>
        <time>2022-12-19T11:57:47Z</time>
      </trkpt>
      <trkpt lat="43.46854" lon="6.49263">
        <ele>205.3</ele>
        <time>2022-12-19T12:00:01Z</time>
      </trkpt>
      <trkpt lat="43.46858" lon="6.49252">
        <ele>206.8</ele>
        <time>2022-12-19T12:00:11Z</time>
      </trkpt>
      <trkpt lat="43.46863" lon="6.49241">
        <ele>205.4</ele>
        <time>2022-12-19T12:00:28Z</time>
      </trkpt>
      <trkpt lat="43.46867" lon="6.49229">
        <ele>205.3</ele>
        <time>2022-12-19T12:00:38Z</time>
      </trkpt>
      <trkpt lat="43.46871" lon="6.49217">
        <ele>207.4</ele>
        <time>2022-12-19T12:00:52Z</time>
      </trkpt>
      <trkpt lat="43.46874" lon="6.49205">
        <ele>205.2</ele>
        <time>2022-12-19T12:01:04Z</time>
      </trkpt>
      <trkpt lat="43.46878" lon="6.49194">
        <ele>203.9</ele>
        <time>2022-12-19T12:01:15Z</time>
      </trkpt>
      <trkpt lat="43.46881" lon="6.49182">
        <ele>202.8</ele>
        <time>2022-12-19T12:01:27Z</time>
      </trkpt>
      <trkpt lat="43.46884" lon="6.4917">
        <ele>202.7</ele>
        <time>2022-12-19T12:01:39Z</time>
      </trkpt>
      <trkpt lat="43.46887" lon="6.49157">
        <ele>202.3</ele>
        <time>2022-12-19T12:01:51Z</time>
      </trkpt>
      <trkpt lat="43.4689" lon="6.49146">
        <ele>203.4</ele>
        <time>2022-12-19T12:02:31Z</time>
      </trkpt>
      <trkpt lat="43.46895" lon="6.49135">
        <ele>202.7</ele>
        <time>2022-12-19T12:02:57Z</time>
      </trkpt>
      <trkpt lat="43.46901" lon="6.49124">
        <ele>201.8</ele>
        <time>2022-12-19T12:03:23Z</time>
      </trkpt>
      <trkpt lat="43.46906" lon="6.49114">
        <ele>201.9</ele>
        <time>2022-12-19T12:03:35Z</time>
      </trkpt>
      <trkpt lat="43.46914" lon="6.49106">
        <ele>200.9</ele>
        <time>2022-12-19T12:03:45Z</time>
      </trkpt>
      <trkpt lat="43.46922" lon="6.49098">
        <ele>199.8</ele>
        <time>2022-12-19T12:03:58Z</time>
      </trkpt>
      <trkpt lat="43.46927" lon="6.49088">
        <ele>199.2</ele>
        <time>2022-12-19T12:04:08Z</time>
      </trkpt>
      <trkpt lat="43.46934" lon="6.49081">
        <ele>198.6</ele>
        <time>2022-12-19T12:04:19Z</time>
      </trkpt>
      <trkpt lat="43.46942" lon="6.49074">
        <ele>197.8</ele>
        <time>2022-12-19T12:04:31Z</time>
      </trkpt>
      <trkpt lat="43.4695" lon="6.49067">
        <ele>196.9</ele>
        <time>2022-12-19T12:04:46Z</time>
      </trkpt>
      <trkpt lat="43.46958" lon="6.49062">
        <ele>196.4</ele>
        <time>2022-12-19T12:04:56Z</time>
      </trkpt>
      <trkpt lat="43.46966" lon="6.49055">
        <ele>195.7</ele>
        <time>2022-12-19T12:05:05Z</time>
      </trkpt>
      <trkpt lat="43.46975" lon="6.49049">
        <ele>194.8</ele>
        <time>2022-12-19T12:05:15Z</time>
      </trkpt>
      <trkpt lat="43.46983" lon="6.49043">
        <ele>193.9</ele>
        <time>2022-12-19T12:05:29Z</time>
      </trkpt>
      <trkpt lat="43.46991" lon="6.49038">
        <ele>193.2</ele>
        <time>2022-12-19T12:05:38Z</time>
      </trkpt>
      <trkpt lat="43.46999" lon="6.49031">
        <ele>191.7</ele>
        <time>2022-12-19T12:05:50Z</time>
      </trkpt>
      <trkpt lat="43.47007" lon="6.49025">
        <ele>190.1</ele>
        <time>2022-12-19T12:06:02Z</time>
      </trkpt>
      <trkpt lat="43.47016" lon="6.49022">
        <ele>191.7</ele>
        <time>2022-12-19T12:06:21Z</time>
      </trkpt>
      <trkpt lat="43.47024" lon="6.49015">
        <ele>189</ele>
        <time>2022-12-19T12:06:32Z</time>
      </trkpt>
      <trkpt lat="43.47034" lon="6.49011">
        <ele>189.3</ele>
        <time>2022-12-19T12:07:05Z</time>
      </trkpt>
      <trkpt lat="43.47043" lon="6.4901">
        <ele>189.2</ele>
        <time>2022-12-19T12:07:13Z</time>
      </trkpt>
      <trkpt lat="43.47044" lon="6.48998">
        <ele>188.3</ele>
        <time>2022-12-19T12:07:26Z</time>
      </trkpt>
      <trkpt lat="43.4705" lon="6.48988">
        <ele>187.9</ele>
        <time>2022-12-19T12:07:53Z</time>
      </trkpt>
      <trkpt lat="43.47054" lon="6.48975">
        <ele>187.5</ele>
        <time>2022-12-19T12:08:05Z</time>
      </trkpt>
      <trkpt lat="43.47059" lon="6.48965">
        <ele>187</ele>
        <time>2022-12-19T12:08:14Z</time>
      </trkpt>
      <trkpt lat="43.47064" lon="6.48954">
        <ele>186.7</ele>
        <time>2022-12-19T12:08:24Z</time>
      </trkpt>
      <trkpt lat="43.4707" lon="6.48943">
        <ele>185.9</ele>
        <time>2022-12-19T12:08:35Z</time>
      </trkpt>
      <trkpt lat="43.47076" lon="6.48931">
        <ele>185.9</ele>
        <time>2022-12-19T12:08:44Z</time>
      </trkpt>
      <trkpt lat="43.47081" lon="6.48921">
        <ele>185.7</ele>
        <time>2022-12-19T12:08:56Z</time>
      </trkpt>
      <trkpt lat="43.47088" lon="6.48911">
        <ele>185.6</ele>
        <time>2022-12-19T12:09:06Z</time>
      </trkpt>
      <trkpt lat="43.47092" lon="6.48899">
        <ele>185.4</ele>
        <time>2022-12-19T12:09:16Z</time>
      </trkpt>
      <trkpt lat="43.47097" lon="6.48888">
        <ele>185.3</ele>
        <time>2022-12-19T12:09:25Z</time>
      </trkpt>
      <trkpt lat="43.47101" lon="6.48876">
        <ele>184.8</ele>
        <time>2022-12-19T12:09:34Z</time>
      </trkpt>
      <trkpt lat="43.47105" lon="6.48865">
        <ele>184.8</ele>
        <time>2022-12-19T12:09:43Z</time>
      </trkpt>
      <trkpt lat="43.47109" lon="6.48853">
        <ele>184.7</ele>
        <time>2022-12-19T12:09:51Z</time>
      </trkpt>
      <trkpt lat="43.47113" lon="6.48842">
        <ele>184.8</ele>
        <time>2022-12-19T12:09:59Z</time>
      </trkpt>
      <trkpt lat="43.47118" lon="6.4883">
        <ele>184.9</ele>
        <time>2022-12-19T12:10:09Z</time>
      </trkpt>
      <trkpt lat="43.4712" lon="6.48817">
        <ele>185</ele>
        <time>2022-12-19T12:10:19Z</time>
      </trkpt>
      <trkpt lat="43.47121" lon="6.48803">
        <ele>185.1</ele>
        <time>2022-12-19T12:10:29Z</time>
      </trkpt>
      <trkpt lat="43.47122" lon="6.4879">
        <ele>185.1</ele>
        <time>2022-12-19T12:10:38Z</time>
      </trkpt>
      <trkpt lat="43.47124" lon="6.48778">
        <ele>185.2</ele>
        <time>2022-12-19T12:10:47Z</time>
      </trkpt>
      <trkpt lat="43.47131" lon="6.48769">
        <ele>184.8</ele>
        <time>2022-12-19T12:10:59Z</time>
      </trkpt>
      <trkpt lat="43.4714" lon="6.48765">
        <ele>185</ele>
        <time>2022-12-19T12:11:11Z</time>
      </trkpt>
      <trkpt lat="43.47148" lon="6.48769">
        <ele>185.8</ele>
        <time>2022-12-19T12:11:31Z</time>
      </trkpt>
      <trkpt lat="43.47156" lon="6.48776">
        <ele>185.9</ele>
        <time>2022-12-19T12:11:43Z</time>
      </trkpt>
      <trkpt lat="43.47166" lon="6.48777">
        <ele>185.8</ele>
        <time>2022-12-19T12:11:54Z</time>
      </trkpt>
      <trkpt lat="43.47173" lon="6.4877">
        <ele>186.5</ele>
        <time>2022-12-19T12:12:06Z</time>
      </trkpt>
      <trkpt lat="43.47179" lon="6.4876">
        <ele>185.7</ele>
        <time>2022-12-19T12:12:18Z</time>
      </trkpt>
      <trkpt lat="43.47188" lon="6.48755">
        <ele>186.2</ele>
        <time>2022-12-19T12:12:46Z</time>
      </trkpt>
      <trkpt lat="43.47196" lon="6.48761">
        <ele>185.5</ele>
        <time>2022-12-19T12:13:03Z</time>
      </trkpt>
      <trkpt lat="43.47205" lon="6.48765">
        <ele>186.1</ele>
        <time>2022-12-19T12:14:16Z</time>
      </trkpt>
      <trkpt lat="43.47215" lon="6.48766">
        <ele>184.8</ele>
        <time>2022-12-19T12:14:27Z</time>
      </trkpt>
      <trkpt lat="43.47218" lon="6.48778">
        <ele>184.7</ele>
        <time>2022-12-19T12:14:39Z</time>
      </trkpt>
      <trkpt lat="43.47223" lon="6.48788">
        <ele>187.6</ele>
        <time>2022-12-19T12:14:49Z</time>
      </trkpt>
      <trkpt lat="43.4723" lon="6.48797">
        <ele>185.9</ele>
        <time>2022-12-19T12:15:00Z</time>
      </trkpt>
      <trkpt lat="43.47238" lon="6.48803">
        <ele>182.9</ele>
        <time>2022-12-19T12:15:12Z</time>
      </trkpt>
      <trkpt lat="43.47247" lon="6.48803">
        <ele>181.1</ele>
        <time>2022-12-19T12:15:22Z</time>
      </trkpt>
      <trkpt lat="43.47257" lon="6.48802">
        <ele>180.2</ele>
        <time>2022-12-19T12:15:33Z</time>
      </trkpt>
      <trkpt lat="43.47266" lon="6.48804">
        <ele>180.7</ele>
        <time>2022-12-19T12:15:44Z</time>
      </trkpt>
      <trkpt lat="43.47275" lon="6.48805">
        <ele>180.6</ele>
        <time>2022-12-19T12:15:54Z</time>
      </trkpt>
      <trkpt lat="43.47284" lon="6.48806">
        <ele>180</ele>
        <time>2022-12-19T12:16:04Z</time>
      </trkpt>
      <trkpt lat="43.47294" lon="6.48805">
        <ele>180.3</ele>
        <time>2022-12-19T12:16:15Z</time>
      </trkpt>
      <trkpt lat="43.47303" lon="6.48804">
        <ele>180.2</ele>
        <time>2022-12-19T12:16:51Z</time>
      </trkpt>
      <trkpt lat="43.47311" lon="6.48798">
        <ele>181.2</ele>
        <time>2022-12-19T12:17:09Z</time>
      </trkpt>
      <trkpt lat="43.47318" lon="6.48791">
        <ele>181.2</ele>
        <time>2022-12-19T12:17:26Z</time>
      </trkpt>
      <trkpt lat="43.47324" lon="6.48781">
        <ele>181</ele>
        <time>2022-12-19T12:17:41Z</time>
      </trkpt>
      <trkpt lat="43.47326" lon="6.48768">
        <ele>180.9</ele>
        <time>2022-12-19T12:17:59Z</time>
      </trkpt>
      <trkpt lat="43.47326" lon="6.48756">
        <ele>180.5</ele>
        <time>2022-12-19T12:18:44Z</time>
      </trkpt>
      <trkpt lat="43.47328" lon="6.48744">
        <ele>179.4</ele>
        <time>2022-12-19T12:19:22Z</time>
      </trkpt>
      <trkpt lat="43.47329" lon="6.48731">
        <ele>179.2</ele>
        <time>2022-12-19T12:19:36Z</time>
      </trkpt>
      <trkpt lat="43.47333" lon="6.48719">
        <ele>180.6</ele>
        <time>2022-12-19T12:19:47Z</time>
      </trkpt>
      <trkpt lat="43.47338" lon="6.48709">
        <ele>181.1</ele>
        <time>2022-12-19T12:19:59Z</time>
      </trkpt>
      <trkpt lat="43.47342" lon="6.48697">
        <ele>180.6</ele>
        <time>2022-12-19T12:20:13Z</time>
      </trkpt>
      <trkpt lat="43.47347" lon="6.48686">
        <ele>180.4</ele>
        <time>2022-12-19T12:20:26Z</time>
      </trkpt>
      <trkpt lat="43.4735" lon="6.48675">
        <ele>180.3</ele>
        <time>2022-12-19T12:20:39Z</time>
      </trkpt>
      <trkpt lat="43.47357" lon="6.48664">
        <ele>180.4</ele>
        <time>2022-12-19T12:20:50Z</time>
      </trkpt>
      <trkpt lat="43.47362" lon="6.48653">
        <ele>180.2</ele>
        <time>2022-12-19T12:21:02Z</time>
      </trkpt>
      <trkpt lat="43.4737" lon="6.48644">
        <ele>179.8</ele>
        <time>2022-12-19T12:21:13Z</time>
      </trkpt>
      <trkpt lat="43.47378" lon="6.48639">
        <ele>179.8</ele>
        <time>2022-12-19T12:21:24Z</time>
      </trkpt>
      <trkpt lat="43.47387" lon="6.48637">
        <ele>179.8</ele>
        <time>2022-12-19T12:21:36Z</time>
      </trkpt>
      <trkpt lat="43.47397" lon="6.48636">
        <ele>179.6</ele>
        <time>2022-12-19T12:21:48Z</time>
      </trkpt>
      <trkpt lat="43.47406" lon="6.48636">
        <ele>179.6</ele>
        <time>2022-12-19T12:21:58Z</time>
      </trkpt>
      <trkpt lat="43.47415" lon="6.48638">
        <ele>179.9</ele>
        <time>2022-12-19T12:22:12Z</time>
      </trkpt>
      <trkpt lat="43.47425" lon="6.48641">
        <ele>180.3</ele>
        <time>2022-12-19T12:22:30Z</time>
      </trkpt>
      <trkpt lat="43.47434" lon="6.48644">
        <ele>180.3</ele>
        <time>2022-12-19T12:22:39Z</time>
      </trkpt>
      <trkpt lat="43.47444" lon="6.48645">
        <ele>180.1</ele>
        <time>2022-12-19T12:22:50Z</time>
      </trkpt>
      <trkpt lat="43.47453" lon="6.48647">
        <ele>184.3</ele>
        <time>2022-12-19T12:23:02Z</time>
      </trkpt>
      <trkpt lat="43.47462" lon="6.48643">
        <ele>181.6</ele>
        <time>2022-12-19T12:23:13Z</time>
      </trkpt>
      <trkpt lat="43.47469" lon="6.48636">
        <ele>180.3</ele>
        <time>2022-12-19T12:23:25Z</time>
      </trkpt>
      <trkpt lat="43.47475" lon="6.48626">
        <ele>179.3</ele>
        <time>2022-12-19T12:23:37Z</time>
      </trkpt>
      <trkpt lat="43.47482" lon="6.48616">
        <ele>180.2</ele>
        <time>2022-12-19T12:23:49Z</time>
      </trkpt>
      <trkpt lat="43.47488" lon="6.48606">
        <ele>179.4</ele>
        <time>2022-12-19T12:24:02Z</time>
      </trkpt>
      <trkpt lat="43.47496" lon="6.48599">
        <ele>180.4</ele>
        <time>2022-12-19T12:24:14Z</time>
      </trkpt>
      <trkpt lat="43.47505" lon="6.48597">
        <ele>179.3</ele>
        <time>2022-12-19T12:24:25Z</time>
      </trkpt>
      <trkpt lat="43.47514" lon="6.48595">
        <ele>178.8</ele>
        <time>2022-12-19T12:24:36Z</time>
      </trkpt>
      <trkpt lat="43.47523" lon="6.4859">
        <ele>178.7</ele>
        <time>2022-12-19T12:24:49Z</time>
      </trkpt>
      <trkpt lat="43.47532" lon="6.48586">
        <ele>178.5</ele>
        <time>2022-12-19T12:25:01Z</time>
      </trkpt>
      <trkpt lat="43.47541" lon="6.48584">
        <ele>178.1</ele>
        <time>2022-12-19T12:25:14Z</time>
      </trkpt>
      <trkpt lat="43.47551" lon="6.4858">
        <ele>177.4</ele>
        <time>2022-12-19T12:25:26Z</time>
      </trkpt>
      <trkpt lat="43.4756" lon="6.48579">
        <ele>176</ele>
        <time>2022-12-19T12:25:39Z</time>
      </trkpt>
      <trkpt lat="43.47569" lon="6.48576">
        <ele>175.6</ele>
        <time>2022-12-19T12:25:52Z</time>
      </trkpt>
      <trkpt lat="43.47578" lon="6.48573">
        <ele>175.4</ele>
        <time>2022-12-19T12:26:01Z</time>
      </trkpt>
      <trkpt lat="43.47587" lon="6.48572">
        <ele>174.7</ele>
        <time>2022-12-19T12:26:11Z</time>
      </trkpt>
      <trkpt lat="43.47597" lon="6.48572">
        <ele>173.4</ele>
        <time>2022-12-19T12:26:27Z</time>
      </trkpt>
      <trkpt lat="43.47606" lon="6.48575">
        <ele>172.9</ele>
        <time>2022-12-19T12:26:40Z</time>
      </trkpt>
      <trkpt lat="43.47615" lon="6.48573">
        <ele>171.7</ele>
        <time>2022-12-19T12:26:54Z</time>
      </trkpt>
      <trkpt lat="43.47624" lon="6.4857">
        <ele>170.9</ele>
        <time>2022-12-19T12:27:05Z</time>
      </trkpt>
      <trkpt lat="43.47633" lon="6.48569">
        <ele>170.3</ele>
        <time>2022-12-19T12:27:21Z</time>
      </trkpt>
      <trkpt lat="43.47643" lon="6.48568">
        <ele>169.2</ele>
        <time>2022-12-19T12:27:40Z</time>
      </trkpt>
      <trkpt lat="43.47652" lon="6.48565">
        <ele>168</ele>
        <time>2022-12-19T12:27:56Z</time>
      </trkpt>
      <trkpt lat="43.4766" lon="6.48559">
        <ele>166.8</ele>
        <time>2022-12-19T12:28:10Z</time>
      </trkpt>
      <trkpt lat="43.47669" lon="6.48555">
        <ele>166</ele>
        <time>2022-12-19T12:28:23Z</time>
      </trkpt>
      <trkpt lat="43.47677" lon="6.4855">
        <ele>165</ele>
        <time>2022-12-19T12:28:34Z</time>
      </trkpt>
      <trkpt lat="43.47686" lon="6.48546">
        <ele>163.5</ele>
        <time>2022-12-19T12:28:48Z</time>
      </trkpt>
      <trkpt lat="43.47696" lon="6.48543">
        <ele>162.9</ele>
        <time>2022-12-19T12:29:01Z</time>
      </trkpt>
      <trkpt lat="43.47704" lon="6.48538">
        <ele>161.2</ele>
        <time>2022-12-19T12:29:25Z</time>
      </trkpt>
      <trkpt lat="43.47712" lon="6.4853">
        <ele>159.7</ele>
        <time>2022-12-19T12:29:43Z</time>
      </trkpt>
      <trkpt lat="43.47721" lon="6.48526">
        <ele>158</ele>
        <time>2022-12-19T12:30:06Z</time>
      </trkpt>
      <trkpt lat="43.47729" lon="6.4852">
        <ele>157.2</ele>
        <time>2022-12-19T12:30:24Z</time>
      </trkpt>
      <trkpt lat="43.47738" lon="6.48515">
        <ele>155.7</ele>
        <time>2022-12-19T12:30:39Z</time>
      </trkpt>
      <trkpt lat="43.47747" lon="6.48513">
        <ele>153.1</ele>
        <time>2022-12-19T12:30:58Z</time>
      </trkpt>
      <trkpt lat="43.47756" lon="6.4851">
        <ele>147.1</ele>
        <time>2022-12-19T12:31:31Z</time>
      </trkpt>
      <trkpt lat="43.47765" lon="6.48508">
        <ele>150.3</ele>
        <time>2022-12-19T12:31:54Z</time>
      </trkpt>
      <trkpt lat="43.47774" lon="6.48504">
        <ele>148.2</ele>
        <time>2022-12-19T12:32:24Z</time>
      </trkpt>
      <trkpt lat="43.47781" lon="6.48496">
        <ele>146.7</ele>
        <time>2022-12-19T12:32:43Z</time>
      </trkpt>
      <trkpt lat="43.47791" lon="6.48497">
        <ele>145.3</ele>
        <time>2022-12-19T12:33:01Z</time>
      </trkpt>
      <trkpt lat="43.478" lon="6.48495">
        <ele>144.2</ele>
        <time>2022-12-19T12:33:20Z</time>
      </trkpt>
      <trkpt lat="43.47808" lon="6.48502">
        <ele>142.6</ele>
        <time>2022-12-19T12:33:32Z</time>
      </trkpt>
      <trkpt lat="43.47806" lon="6.48516">
        <ele>141.9</ele>
        <time>2022-12-19T12:34:28Z</time>
      </trkpt>
      <trkpt lat="43.47801" lon="6.48527">
        <ele>144.5</ele>
        <time>2022-12-19T12:34:42Z</time>
      </trkpt>
      <trkpt lat="43.47794" lon="6.48535">
        <ele>142.5</ele>
        <time>2022-12-19T12:34:58Z</time>
      </trkpt>
      <trkpt lat="43.47786" lon="6.48542">
        <ele>141</ele>
        <time>2022-12-19T12:35:12Z</time>
      </trkpt>
      <trkpt lat="43.47779" lon="6.48549">
        <ele>141.3</ele>
        <time>2022-12-19T12:35:23Z</time>
      </trkpt>
      <trkpt lat="43.47771" lon="6.48557">
        <ele>140.4</ele>
        <time>2022-12-19T12:35:35Z</time>
      </trkpt>
      <trkpt lat="43.47765" lon="6.48567">
        <ele>140</ele>
        <time>2022-12-19T12:35:47Z</time>
      </trkpt>
      <trkpt lat="43.4776" lon="6.48578">
        <ele>142.5</ele>
        <time>2022-12-19T12:35:59Z</time>
      </trkpt>
      <trkpt lat="43.47755" lon="6.48589">
        <ele>142.9</ele>
        <time>2022-12-19T12:36:15Z</time>
      </trkpt>
      <trkpt lat="43.47751" lon="6.48601">
        <ele>142</ele>
        <time>2022-12-19T12:36:25Z</time>
      </trkpt>
      <trkpt lat="43.47746" lon="6.48612">
        <ele>142.3</ele>
        <time>2022-12-19T12:36:35Z</time>
      </trkpt>
      <trkpt lat="43.47741" lon="6.48623">
        <ele>143</ele>
        <time>2022-12-19T12:36:45Z</time>
      </trkpt>
      <trkpt lat="43.47735" lon="6.48633">
        <ele>142.8</ele>
        <time>2022-12-19T12:36:58Z</time>
      </trkpt>
      <trkpt lat="43.4773" lon="6.48643">
        <ele>143.5</ele>
        <time>2022-12-19T12:37:09Z</time>
      </trkpt>
      <trkpt lat="43.47724" lon="6.48653">
        <ele>144.4</ele>
        <time>2022-12-19T12:37:20Z</time>
      </trkpt>
      <trkpt lat="43.47718" lon="6.48663">
        <ele>144</ele>
        <time>2022-12-19T12:37:32Z</time>
      </trkpt>
      <trkpt lat="43.47712" lon="6.48673">
        <ele>141.3</ele>
        <time>2022-12-19T12:37:43Z</time>
      </trkpt>
      <trkpt lat="43.47704" lon="6.48681">
        <ele>146</ele>
        <time>2022-12-19T12:38:13Z</time>
      </trkpt>
      <trkpt lat="43.47696" lon="6.48686">
        <ele>146.2</ele>
        <time>2022-12-19T12:38:45Z</time>
      </trkpt>
      <trkpt lat="43.47687" lon="6.48683">
        <ele>146.3</ele>
        <time>2022-12-19T12:39:08Z</time>
      </trkpt>
      <trkpt lat="43.47678" lon="6.48687">
        <ele>148.9</ele>
        <time>2022-12-19T12:39:20Z</time>
      </trkpt>
      <trkpt lat="43.47669" lon="6.48692">
        <ele>145.7</ele>
        <time>2022-12-19T12:39:43Z</time>
      </trkpt>
      <trkpt lat="43.4766" lon="6.48695">
        <ele>144.8</ele>
        <time>2022-12-19T12:39:56Z</time>
      </trkpt>
      <trkpt lat="43.47651" lon="6.48699">
        <ele>145.3</ele>
        <time>2022-12-19T12:40:08Z</time>
      </trkpt>
      <trkpt lat="43.47642" lon="6.48703">
        <ele>146.7</ele>
        <time>2022-12-19T12:40:22Z</time>
      </trkpt>
      <trkpt lat="43.47633" lon="6.48709">
        <ele>146.8</ele>
        <time>2022-12-19T12:40:34Z</time>
      </trkpt>
      <trkpt lat="43.47628" lon="6.4872">
        <ele>147.9</ele>
        <time>2022-12-19T12:40:49Z</time>
      </trkpt>
      <trkpt lat="43.47624" lon="6.48731">
        <ele>148.4</ele>
        <time>2022-12-19T12:40:59Z</time>
      </trkpt>
      <trkpt lat="43.4762" lon="6.48743">
        <ele>149.4</ele>
        <time>2022-12-19T12:41:12Z</time>
      </trkpt>
      <trkpt lat="43.47619" lon="6.48755">
        <ele>148.2</ele>
        <time>2022-12-19T12:41:23Z</time>
      </trkpt>
      <trkpt lat="43.47617" lon="6.48768">
        <ele>150.6</ele>
        <time>2022-12-19T12:41:35Z</time>
      </trkpt>
      <trkpt lat="43.47614" lon="6.4878">
        <ele>149.1</ele>
        <time>2022-12-19T12:41:51Z</time>
      </trkpt>
      <trkpt lat="43.4761" lon="6.48791">
        <ele>150.4</ele>
        <time>2022-12-19T12:42:02Z</time>
      </trkpt>
      <trkpt lat="43.47603" lon="6.48799">
        <ele>150.7</ele>
        <time>2022-12-19T12:42:14Z</time>
      </trkpt>
      <trkpt lat="43.47594" lon="6.48805">
        <ele>150.8</ele>
        <time>2022-12-19T12:42:29Z</time>
      </trkpt>
      <trkpt lat="43.47585" lon="6.48811">
        <ele>152.9</ele>
        <time>2022-12-19T12:42:35Z</time>
      </trkpt>
      <trkpt lat="43.47577" lon="6.48816">
        <ele>155.3</ele>
        <time>2022-12-19T12:42:42Z</time>
      </trkpt>
      <trkpt lat="43.47568" lon="6.48821">
        <ele>154.5</ele>
        <time>2022-12-19T12:42:50Z</time>
      </trkpt>
      <trkpt lat="43.4756" lon="6.48827">
        <ele>154.3</ele>
        <time>2022-12-19T12:42:58Z</time>
      </trkpt>
      <trkpt lat="43.4755" lon="6.4883">
        <ele>154.5</ele>
        <time>2022-12-19T12:43:08Z</time>
      </trkpt>
      <trkpt lat="43.47541" lon="6.48834">
        <ele>154.9</ele>
        <time>2022-12-19T12:43:18Z</time>
      </trkpt>
      <trkpt lat="43.47532" lon="6.48838">
        <ele>155.2</ele>
        <time>2022-12-19T12:43:28Z</time>
      </trkpt>
      <trkpt lat="43.47524" lon="6.48843">
        <ele>154.7</ele>
        <time>2022-12-19T12:43:41Z</time>
      </trkpt>
      <trkpt lat="43.47515" lon="6.48847">
        <ele>155.1</ele>
        <time>2022-12-19T12:43:52Z</time>
      </trkpt>
      <trkpt lat="43.47506" lon="6.48852">
        <ele>159.3</ele>
        <time>2022-12-19T12:44:02Z</time>
      </trkpt>
      <trkpt lat="43.47498" lon="6.48856">
        <ele>153.8</ele>
        <time>2022-12-19T12:44:13Z</time>
      </trkpt>
      <trkpt lat="43.4749" lon="6.48864">
        <ele>160.4</ele>
        <time>2022-12-19T12:44:26Z</time>
      </trkpt>
      <trkpt lat="43.47482" lon="6.4887">
        <ele>160.1</ele>
        <time>2022-12-19T12:44:36Z</time>
      </trkpt>
      <trkpt lat="43.47474" lon="6.48875">
        <ele>159.1</ele>
        <time>2022-12-19T12:44:46Z</time>
      </trkpt>
      <trkpt lat="43.47466" lon="6.48882">
        <ele>158.6</ele>
        <time>2022-12-19T12:44:58Z</time>
      </trkpt>
      <trkpt lat="43.47457" lon="6.48887">
        <ele>158.5</ele>
        <time>2022-12-19T12:45:10Z</time>
      </trkpt>
      <trkpt lat="43.47449" lon="6.48894">
        <ele>158.7</ele>
        <time>2022-12-19T12:45:20Z</time>
      </trkpt>
      <trkpt lat="43.47441" lon="6.48901">
        <ele>159.3</ele>
        <time>2022-12-19T12:45:31Z</time>
      </trkpt>
      <trkpt lat="43.47431" lon="6.48905">
        <ele>159.4</ele>
        <time>2022-12-19T12:45:41Z</time>
      </trkpt>
      <trkpt lat="43.47421" lon="6.48906">
        <ele>159.6</ele>
        <time>2022-12-19T12:45:51Z</time>
      </trkpt>
      <trkpt lat="43.47412" lon="6.48906">
        <ele>160</ele>
        <time>2022-12-19T12:46:01Z</time>
      </trkpt>
      <trkpt lat="43.47403" lon="6.48904">
        <ele>160.5</ele>
        <time>2022-12-19T12:46:10Z</time>
      </trkpt>
      <trkpt lat="43.47393" lon="6.48905">
        <ele>160.9</ele>
        <time>2022-12-19T12:46:22Z</time>
      </trkpt>
      <trkpt lat="43.47385" lon="6.48911">
        <ele>164.8</ele>
        <time>2022-12-19T12:46:34Z</time>
      </trkpt>
      <trkpt lat="43.47378" lon="6.48919">
        <ele>162.8</ele>
        <time>2022-12-19T12:46:47Z</time>
      </trkpt>
      <trkpt lat="43.47371" lon="6.48927">
        <ele>160.9</ele>
        <time>2022-12-19T12:46:59Z</time>
      </trkpt>
      <trkpt lat="43.47363" lon="6.48934">
        <ele>160.6</ele>
        <time>2022-12-19T12:47:11Z</time>
      </trkpt>
      <trkpt lat="43.47355" lon="6.48939">
        <ele>161.4</ele>
        <time>2022-12-19T12:47:22Z</time>
      </trkpt>
      <trkpt lat="43.47347" lon="6.48948">
        <ele>161.9</ele>
        <time>2022-12-19T12:47:33Z</time>
      </trkpt>
      <trkpt lat="43.47339" lon="6.48955">
        <ele>162.8</ele>
        <time>2022-12-19T12:47:46Z</time>
      </trkpt>
      <trkpt lat="43.47333" lon="6.48964">
        <ele>162.9</ele>
        <time>2022-12-19T12:47:57Z</time>
      </trkpt>
      <trkpt lat="43.47327" lon="6.48974">
        <ele>163.2</ele>
        <time>2022-12-19T12:48:09Z</time>
      </trkpt>
      <trkpt lat="43.47321" lon="6.48983">
        <ele>161.2</ele>
        <time>2022-12-19T12:48:20Z</time>
      </trkpt>
      <trkpt lat="43.47316" lon="6.48995">
        <ele>164.7</ele>
        <time>2022-12-19T12:48:34Z</time>
      </trkpt>
      <trkpt lat="43.47318" lon="6.49008">
        <ele>167.7</ele>
        <time>2022-12-19T12:49:11Z</time>
      </trkpt>
      <trkpt lat="43.47324" lon="6.49019">
        <ele>168.7</ele>
        <time>2022-12-19T12:49:26Z</time>
      </trkpt>
      <trkpt lat="43.47326" lon="6.49031">
        <ele>169.5</ele>
        <time>2022-12-19T12:49:36Z</time>
      </trkpt>
      <trkpt lat="43.47329" lon="6.49043">
        <ele>170.3</ele>
        <time>2022-12-19T12:49:47Z</time>
      </trkpt>
      <trkpt lat="43.47333" lon="6.49055">
        <ele>171.1</ele>
        <time>2022-12-19T12:49:59Z</time>
      </trkpt>
      <trkpt lat="43.47334" lon="6.49068">
        <ele>174.6</ele>
        <time>2022-12-19T12:50:11Z</time>
      </trkpt>
      <trkpt lat="43.47334" lon="6.4908">
        <ele>173.5</ele>
        <time>2022-12-19T12:50:24Z</time>
      </trkpt>
      <trkpt lat="43.47333" lon="6.49093">
        <ele>172.6</ele>
        <time>2022-12-19T12:50:38Z</time>
      </trkpt>
      <trkpt lat="43.47333" lon="6.49106">
        <ele>173.9</ele>
        <time>2022-12-19T12:50:51Z</time>
      </trkpt>
      <trkpt lat="43.47331" lon="6.49119">
        <ele>175.6</ele>
        <time>2022-12-19T12:51:05Z</time>
      </trkpt>
      <trkpt lat="43.4733" lon="6.49131">
        <ele>177</ele>
        <time>2022-12-19T12:51:27Z</time>
      </trkpt>
      <trkpt lat="43.47323" lon="6.49139">
        <ele>177.4</ele>
        <time>2022-12-19T12:52:46Z</time>
      </trkpt>
      <trkpt lat="43.47314" lon="6.4914">
        <ele>178.5</ele>
        <time>2022-12-19T12:52:56Z</time>
      </trkpt>
      <trkpt lat="43.47304" lon="6.49143">
        <ele>179.2</ele>
        <time>2022-12-19T12:53:07Z</time>
      </trkpt>
      <trkpt lat="43.47301" lon="6.49154">
        <ele>181.5</ele>
        <time>2022-12-19T12:54:17Z</time>
      </trkpt>
      <trkpt lat="43.47301" lon="6.49167">
        <ele>181.7</ele>
        <time>2022-12-19T12:54:34Z</time>
      </trkpt>
      <trkpt lat="43.47303" lon="6.49179">
        <ele>183.8</ele>
        <time>2022-12-19T12:54:46Z</time>
      </trkpt>
      <trkpt lat="43.47304" lon="6.49192">
        <ele>184.3</ele>
        <time>2022-12-19T12:55:01Z</time>
      </trkpt>
      <trkpt lat="43.47306" lon="6.49204">
        <ele>185.4</ele>
        <time>2022-12-19T12:55:14Z</time>
      </trkpt>
      <trkpt lat="43.47307" lon="6.49217">
        <ele>186.9</ele>
        <time>2022-12-19T12:55:26Z</time>
      </trkpt>
      <trkpt lat="43.47309" lon="6.49229">
        <ele>189</ele>
        <time>2022-12-19T12:55:47Z</time>
      </trkpt>
      <trkpt lat="43.47306" lon="6.49241">
        <ele>191.6</ele>
        <time>2022-12-19T12:56:28Z</time>
      </trkpt>
      <trkpt lat="43.4731" lon="6.49252">
        <ele>191.1</ele>
        <time>2022-12-19T12:56:48Z</time>
      </trkpt>
      <trkpt lat="43.47311" lon="6.49265">
        <ele>192.8</ele>
        <time>2022-12-19T12:57:01Z</time>
      </trkpt>
      <trkpt lat="43.47312" lon="6.49278">
        <ele>194.3</ele>
        <time>2022-12-19T12:57:15Z</time>
      </trkpt>
      <trkpt lat="43.47312" lon="6.49291">
        <ele>195.5</ele>
        <time>2022-12-19T12:57:27Z</time>
      </trkpt>
      <trkpt lat="43.47313" lon="6.49304">
        <ele>196.5</ele>
        <time>2022-12-19T12:57:39Z</time>
      </trkpt>
      <trkpt lat="43.47315" lon="6.49317">
        <ele>197.6</ele>
        <time>2022-12-19T12:57:51Z</time>
      </trkpt>
      <trkpt lat="43.47317" lon="6.49329">
        <ele>198.3</ele>
        <time>2022-12-19T12:58:02Z</time>
      </trkpt>
      <trkpt lat="43.47319" lon="6.49341">
        <ele>199.1</ele>
        <time>2022-12-19T12:58:13Z</time>
      </trkpt>
      <trkpt lat="43.47323" lon="6.49353">
        <ele>199.9</ele>
        <time>2022-12-19T12:58:25Z</time>
      </trkpt>
      <trkpt lat="43.47326" lon="6.49365">
        <ele>200.7</ele>
        <time>2022-12-19T12:58:36Z</time>
      </trkpt>
      <trkpt lat="43.47328" lon="6.49379">
        <ele>201.5</ele>
        <time>2022-12-19T12:58:48Z</time>
      </trkpt>
      <trkpt lat="43.4733" lon="6.49391">
        <ele>202.1</ele>
        <time>2022-12-19T12:58:59Z</time>
      </trkpt>
      <trkpt lat="43.47332" lon="6.49404">
        <ele>203</ele>
        <time>2022-12-19T12:59:11Z</time>
      </trkpt>
      <trkpt lat="43.47334" lon="6.49417">
        <ele>203.7</ele>
        <time>2022-12-19T12:59:22Z</time>
      </trkpt>
      <trkpt lat="43.47336" lon="6.4943">
        <ele>204.1</ele>
        <time>2022-12-19T12:59:33Z</time>
      </trkpt>
      <trkpt lat="43.47339" lon="6.49443">
        <ele>204.7</ele>
        <time>2022-12-19T12:59:44Z</time>
      </trkpt>
      <trkpt lat="43.47343" lon="6.49454">
        <ele>205.1</ele>
        <time>2022-12-19T12:59:57Z</time>
      </trkpt>
      <trkpt lat="43.47344" lon="6.49467">
        <ele>205.2</ele>
        <time>2022-12-19T13:00:07Z</time>
      </trkpt>
      <trkpt lat="43.47348" lon="6.49478">
        <ele>205.5</ele>
        <time>2022-12-19T13:00:18Z</time>
      </trkpt>
      <trkpt lat="43.47358" lon="6.4948">
        <ele>205.8</ele>
        <time>2022-12-19T13:00:32Z</time>
      </trkpt>
      <trkpt lat="43.47367" lon="6.4948">
        <ele>206.2</ele>
        <time>2022-12-19T13:00:47Z</time>
      </trkpt>
      <trkpt lat="43.47376" lon="6.49478">
        <ele>206.5</ele>
        <time>2022-12-19T13:00:57Z</time>
      </trkpt>
      <trkpt lat="43.47385" lon="6.49477">
        <ele>206.8</ele>
        <time>2022-12-19T13:01:07Z</time>
      </trkpt>
      <trkpt lat="43.47395" lon="6.49476">
        <ele>207.3</ele>
        <time>2022-12-19T13:01:19Z</time>
      </trkpt>
      <trkpt lat="43.47404" lon="6.49477">
        <ele>208.1</ele>
        <time>2022-12-19T13:01:33Z</time>
      </trkpt>
      <trkpt lat="43.4741" lon="6.49487">
        <ele>208.4</ele>
        <time>2022-12-19T13:01:46Z</time>
      </trkpt>
      <trkpt lat="43.47412" lon="6.495">
        <ele>208.8</ele>
        <time>2022-12-19T13:02:01Z</time>
      </trkpt>
      <trkpt lat="43.47414" lon="6.49513">
        <ele>208.6</ele>
        <time>2022-12-19T13:02:13Z</time>
      </trkpt>
      <trkpt lat="43.47416" lon="6.49526">
        <ele>208.3</ele>
        <time>2022-12-19T13:02:24Z</time>
      </trkpt>
      <trkpt lat="43.47418" lon="6.4954">
        <ele>207.1</ele>
        <time>2022-12-19T13:02:40Z</time>
      </trkpt>
      <trkpt lat="43.47419" lon="6.49553">
        <ele>206.9</ele>
        <time>2022-12-19T13:02:50Z</time>
      </trkpt>
      <trkpt lat="43.47419" lon="6.49565">
        <ele>206.6</ele>
        <time>2022-12-19T13:02:59Z</time>
      </trkpt>
      <trkpt lat="43.47422" lon="6.49577">
        <ele>206.2</ele>
        <time>2022-12-19T13:03:09Z</time>
      </trkpt>
      <trkpt lat="43.47423" lon="6.4959">
        <ele>205.6</ele>
        <time>2022-12-19T13:03:19Z</time>
      </trkpt>
      <trkpt lat="43.47424" lon="6.49603">
        <ele>204.7</ele>
        <time>2022-12-19T13:03:30Z</time>
      </trkpt>
      <trkpt lat="43.47426" lon="6.49616">
        <ele>203.7</ele>
        <time>2022-12-19T13:03:45Z</time>
      </trkpt>
      <trkpt lat="43.47424" lon="6.49628">
        <ele>203.3</ele>
        <time>2022-12-19T13:04:11Z</time>
      </trkpt>
      <trkpt lat="43.47417" lon="6.49637">
        <ele>203.1</ele>
        <time>2022-12-19T13:04:22Z</time>
      </trkpt>
      <trkpt lat="43.47411" lon="6.49647">
        <ele>203.1</ele>
        <time>2022-12-19T13:04:32Z</time>
      </trkpt>
      <trkpt lat="43.47404" lon="6.49657">
        <ele>202.9</ele>
        <time>2022-12-19T13:04:50Z</time>
      </trkpt>
      <trkpt lat="43.47397" lon="6.49666">
        <ele>203.3</ele>
        <time>2022-12-19T13:05:01Z</time>
      </trkpt>
      <trkpt lat="43.4739" lon="6.49676">
        <ele>203.4</ele>
        <time>2022-12-19T13:05:13Z</time>
      </trkpt>
      <trkpt lat="43.47384" lon="6.49684">
        <ele>203.4</ele>
        <time>2022-12-19T13:05:24Z</time>
      </trkpt>
      <trkpt lat="43.47376" lon="6.4969">
        <ele>202.9</ele>
        <time>2022-12-19T13:05:34Z</time>
      </trkpt>
      <trkpt lat="43.47371" lon="6.49702">
        <ele>202.1</ele>
        <time>2022-12-19T13:05:47Z</time>
      </trkpt>
      <trkpt lat="43.47373" lon="6.49715">
        <ele>201.8</ele>
        <time>2022-12-19T13:05:58Z</time>
      </trkpt>
      <trkpt lat="43.47375" lon="6.49727">
        <ele>201.4</ele>
        <time>2022-12-19T13:06:10Z</time>
      </trkpt>
      <trkpt lat="43.47377" lon="6.49739">
        <ele>201.3</ele>
        <time>2022-12-19T13:06:20Z</time>
      </trkpt>
      <trkpt lat="43.47378" lon="6.49753">
        <ele>201.2</ele>
        <time>2022-12-19T13:06:29Z</time>
      </trkpt>
      <trkpt lat="43.4738" lon="6.49765">
        <ele>201.2</ele>
        <time>2022-12-19T13:06:38Z</time>
      </trkpt>
      <trkpt lat="43.47383" lon="6.49777">
        <ele>200.5</ele>
        <time>2022-12-19T13:06:53Z</time>
      </trkpt>
      <trkpt lat="43.47382" lon="6.4979">
        <ele>200</ele>
        <time>2022-12-19T13:07:05Z</time>
      </trkpt>
      <trkpt lat="43.47383" lon="6.49802">
        <ele>199.2</ele>
        <time>2022-12-19T13:07:18Z</time>
      </trkpt>
      <trkpt lat="43.47386" lon="6.49815">
        <ele>199.5</ele>
        <time>2022-12-19T13:07:29Z</time>
      </trkpt>
      <trkpt lat="43.47385" lon="6.49827">
        <ele>199.4</ele>
        <time>2022-12-19T13:07:40Z</time>
      </trkpt>
      <trkpt lat="43.47387" lon="6.4984">
        <ele>199.4</ele>
        <time>2022-12-19T13:07:52Z</time>
      </trkpt>
      <trkpt lat="43.47389" lon="6.49853">
        <ele>198.7</ele>
        <time>2022-12-19T13:08:03Z</time>
      </trkpt>
      <trkpt lat="43.47391" lon="6.49866">
        <ele>199.5</ele>
        <time>2022-12-19T13:08:13Z</time>
      </trkpt>
      <trkpt lat="43.47392" lon="6.49879">
        <ele>197.6</ele>
        <time>2022-12-19T13:08:24Z</time>
      </trkpt>
      <trkpt lat="43.4739" lon="6.49892">
        <ele>196.3</ele>
        <time>2022-12-19T13:08:38Z</time>
      </trkpt>
      <trkpt lat="43.47385" lon="6.49903">
        <ele>196.2</ele>
        <time>2022-12-19T13:08:48Z</time>
      </trkpt>
      <trkpt lat="43.47377" lon="6.4991">
        <ele>196.1</ele>
        <time>2022-12-19T13:09:45Z</time>
      </trkpt>
      <trkpt lat="43.47375" lon="6.49922">
        <ele>198.2</ele>
        <time>2022-12-19T13:10:15Z</time>
      </trkpt>
      <trkpt lat="43.47368" lon="6.4993">
        <ele>198</ele>
        <time>2022-12-19T13:10:29Z</time>
      </trkpt>
      <trkpt lat="43.47363" lon="6.49942">
        <ele>198.5</ele>
        <time>2022-12-19T13:10:40Z</time>
      </trkpt>
      <trkpt lat="43.47355" lon="6.4995">
        <ele>196.7</ele>
        <time>2022-12-19T13:10:53Z</time>
      </trkpt>
      <trkpt lat="43.47349" lon="6.4996">
        <ele>197.8</ele>
        <time>2022-12-19T13:11:09Z</time>
      </trkpt>
      <trkpt lat="43.47343" lon="6.4997">
        <ele>197.6</ele>
        <time>2022-12-19T13:11:17Z</time>
      </trkpt>
      <trkpt lat="43.47338" lon="6.4998">
        <ele>198.2</ele>
        <time>2022-12-19T13:11:26Z</time>
      </trkpt>
      <trkpt lat="43.47332" lon="6.49989">
        <ele>199.6</ele>
        <time>2022-12-19T13:11:37Z</time>
      </trkpt>
      <trkpt lat="43.47325" lon="6.49999">
        <ele>198.4</ele>
        <time>2022-12-19T13:11:50Z</time>
      </trkpt>
      <trkpt lat="43.47321" lon="6.50009">
        <ele>199.5</ele>
        <time>2022-12-19T13:12:01Z</time>
      </trkpt>
      <trkpt lat="43.47314" lon="6.50019">
        <ele>195.6</ele>
        <time>2022-12-19T13:12:49Z</time>
      </trkpt>
      <trkpt lat="43.47308" lon="6.50028">
        <ele>200.7</ele>
        <time>2022-12-19T13:12:59Z</time>
      </trkpt>
      <trkpt lat="43.47299" lon="6.50029">
        <ele>199</ele>
        <time>2022-12-19T13:13:08Z</time>
      </trkpt>
      <trkpt lat="43.47307" lon="6.50025">
        <ele>197.5</ele>
        <time>2022-12-19T13:14:15Z</time>
      </trkpt>
      <trkpt lat="43.47313" lon="6.50016">
        <ele>197.9</ele>
        <time>2022-12-19T13:14:28Z</time>
      </trkpt>
      <trkpt lat="43.47315" lon="6.50028">
        <ele>198.2</ele>
        <time>2022-12-19T13:15:09Z</time>
      </trkpt>
      <trkpt lat="43.4732" lon="6.50038">
        <ele>197.6</ele>
        <time>2022-12-19T13:17:25Z</time>
      </trkpt>
      <trkpt lat="43.47326" lon="6.50049">
        <ele>197.7</ele>
        <time>2022-12-19T13:17:37Z</time>
      </trkpt>
      <trkpt lat="43.47331" lon="6.5006">
        <ele>197.5</ele>
        <time>2022-12-19T13:18:13Z</time>
      </trkpt>
      <trkpt lat="43.47337" lon="6.5007">
        <ele>196.4</ele>
        <time>2022-12-19T13:18:33Z</time>
      </trkpt>
      <trkpt lat="43.47343" lon="6.5008">
        <ele>195.8</ele>
        <time>2022-12-19T13:18:44Z</time>
      </trkpt>
      <trkpt lat="43.47349" lon="6.5009">
        <ele>193.5</ele>
        <time>2022-12-19T13:18:56Z</time>
      </trkpt>
      <trkpt lat="43.47356" lon="6.50099">
        <ele>192.4</ele>
        <time>2022-12-19T13:19:07Z</time>
      </trkpt>
      <trkpt lat="43.47361" lon="6.50111">
        <ele>191.8</ele>
        <time>2022-12-19T13:19:21Z</time>
      </trkpt>
      <trkpt lat="43.47367" lon="6.5012">
        <ele>190.5</ele>
        <time>2022-12-19T13:19:34Z</time>
      </trkpt>
      <trkpt lat="43.47373" lon="6.5013">
        <ele>186.1</ele>
        <time>2022-12-19T13:19:50Z</time>
      </trkpt>
      <trkpt lat="43.47379" lon="6.5014">
        <ele>184.8</ele>
        <time>2022-12-19T13:20:00Z</time>
      </trkpt>
      <trkpt lat="43.47384" lon="6.5015">
        <ele>185.8</ele>
        <time>2022-12-19T13:20:11Z</time>
      </trkpt>
      <trkpt lat="43.47389" lon="6.50161">
        <ele>185.3</ele>
        <time>2022-12-19T13:20:22Z</time>
      </trkpt>
      <trkpt lat="43.47396" lon="6.5017">
        <ele>184.1</ele>
        <time>2022-12-19T13:20:33Z</time>
      </trkpt>
      <trkpt lat="43.47403" lon="6.5018">
        <ele>183.1</ele>
        <time>2022-12-19T13:20:44Z</time>
      </trkpt>
      <trkpt lat="43.47409" lon="6.50189">
        <ele>181.7</ele>
        <time>2022-12-19T13:20:54Z</time>
      </trkpt>
      <trkpt lat="43.47415" lon="6.502">
        <ele>180.3</ele>
        <time>2022-12-19T13:21:05Z</time>
      </trkpt>
      <trkpt lat="43.4742" lon="6.50211">
        <ele>179.9</ele>
        <time>2022-12-19T13:21:15Z</time>
      </trkpt>
      <trkpt lat="43.47425" lon="6.50222">
        <ele>181.8</ele>
        <time>2022-12-19T13:21:27Z</time>
      </trkpt>
      <trkpt lat="43.47429" lon="6.50234">
        <ele>175.1</ele>
        <time>2022-12-19T13:21:44Z</time>
      </trkpt>
      <trkpt lat="43.47435" lon="6.50244">
        <ele>174</ele>
        <time>2022-12-19T13:21:53Z</time>
      </trkpt>
      <trkpt lat="43.47442" lon="6.50254">
        <ele>174</ele>
        <time>2022-12-19T13:22:03Z</time>
      </trkpt>
      <trkpt lat="43.47449" lon="6.50264">
        <ele>174.1</ele>
        <time>2022-12-19T13:22:13Z</time>
      </trkpt>
      <trkpt lat="43.47454" lon="6.50275">
        <ele>176.3</ele>
        <time>2022-12-19T13:22:23Z</time>
      </trkpt>
      <trkpt lat="43.4746" lon="6.50285">
        <ele>172.3</ele>
        <time>2022-12-19T13:22:35Z</time>
      </trkpt>
      <trkpt lat="43.47464" lon="6.50297">
        <ele>173</ele>
        <time>2022-12-19T13:22:49Z</time>
      </trkpt>
      <trkpt lat="43.47471" lon="6.50306">
        <ele>172.1</ele>
        <time>2022-12-19T13:23:04Z</time>
      </trkpt>
      <trkpt lat="43.47475" lon="6.50319">
        <ele>174.4</ele>
        <time>2022-12-19T13:23:29Z</time>
      </trkpt>
      <trkpt lat="43.47483" lon="6.50324">
        <ele>173.9</ele>
        <time>2022-12-19T13:23:40Z</time>
      </trkpt>
      <trkpt lat="43.47485" lon="6.50337">
        <ele>172.5</ele>
        <time>2022-12-19T13:23:55Z</time>
      </trkpt>
      <trkpt lat="43.47489" lon="6.50348">
        <ele>171.3</ele>
        <time>2022-12-19T13:24:10Z</time>
      </trkpt>
      <trkpt lat="43.47497" lon="6.50356">
        <ele>172.1</ele>
        <time>2022-12-19T13:24:21Z</time>
      </trkpt>
      <trkpt lat="43.47501" lon="6.50367">
        <ele>171.1</ele>
        <time>2022-12-19T13:24:32Z</time>
      </trkpt>
      <trkpt lat="43.47507" lon="6.50376">
        <ele>169.6</ele>
        <time>2022-12-19T13:24:44Z</time>
      </trkpt>
      <trkpt lat="43.4751" lon="6.50389">
        <ele>169.5</ele>
        <time>2022-12-19T13:24:56Z</time>
      </trkpt>
      <trkpt lat="43.47515" lon="6.504">
        <ele>169.5</ele>
        <time>2022-12-19T13:25:09Z</time>
      </trkpt>
      <trkpt lat="43.4752" lon="6.50411">
        <ele>168.8</ele>
        <time>2022-12-19T13:25:20Z</time>
      </trkpt>
      <trkpt lat="43.47524" lon="6.50422">
        <ele>167.9</ele>
        <time>2022-12-19T13:25:32Z</time>
      </trkpt>
      <trkpt lat="43.47528" lon="6.50433">
        <ele>166.4</ele>
        <time>2022-12-19T13:25:59Z</time>
      </trkpt>
      <trkpt lat="43.47533" lon="6.50444">
        <ele>164.4</ele>
        <time>2022-12-19T13:26:13Z</time>
      </trkpt>
      <trkpt lat="43.47538" lon="6.50455">
        <ele>163.2</ele>
        <time>2022-12-19T13:26:25Z</time>
      </trkpt>
      <trkpt lat="43.47543" lon="6.50466">
        <ele>161.9</ele>
        <time>2022-12-19T13:26:37Z</time>
      </trkpt>
      <trkpt lat="43.47547" lon="6.50478">
        <ele>161.4</ele>
        <time>2022-12-19T13:27:12Z</time>
      </trkpt>
      <trkpt lat="43.47541" lon="6.50488">
        <ele>161.9</ele>
        <time>2022-12-19T13:27:57Z</time>
      </trkpt>
      <trkpt lat="43.4755" lon="6.50491">
        <ele>160.4</ele>
        <time>2022-12-19T13:28:46Z</time>
      </trkpt>
      <trkpt lat="43.47541" lon="6.50487">
        <ele>159.1</ele>
        <time>2022-12-19T13:31:18Z</time>
      </trkpt>
      <trkpt lat="43.47532" lon="6.50492">
        <ele>159.4</ele>
        <time>2022-12-19T13:31:48Z</time>
      </trkpt>
      <trkpt lat="43.47524" lon="6.50498">
        <ele>158.6</ele>
        <time>2022-12-19T13:31:57Z</time>
      </trkpt>
      <trkpt lat="43.47516" lon="6.50505">
        <ele>158.2</ele>
        <time>2022-12-19T13:32:06Z</time>
      </trkpt>
      <trkpt lat="43.47508" lon="6.50511">
        <ele>157.1</ele>
        <time>2022-12-19T13:32:15Z</time>
      </trkpt>
      <trkpt lat="43.47499" lon="6.50516">
        <ele>155.9</ele>
        <time>2022-12-19T13:32:25Z</time>
      </trkpt>
      <trkpt lat="43.4749" lon="6.5052">
        <ele>155.7</ele>
        <time>2022-12-19T13:32:42Z</time>
      </trkpt>
      <trkpt lat="43.47499" lon="6.50526">
        <ele>155.2</ele>
        <time>2022-12-19T13:33:38Z</time>
      </trkpt>
      <trkpt lat="43.47504" lon="6.50536">
        <ele>154.7</ele>
        <time>2022-12-19T13:33:49Z</time>
      </trkpt>
      <trkpt lat="43.47511" lon="6.50546">
        <ele>153.7</ele>
        <time>2022-12-19T13:33:58Z</time>
      </trkpt>
      <trkpt lat="43.47516" lon="6.50557">
        <ele>152.5</ele>
        <time>2022-12-19T13:34:08Z</time>
      </trkpt>
      <trkpt lat="43.47523" lon="6.50567">
        <ele>151.1</ele>
        <time>2022-12-19T13:34:18Z</time>
      </trkpt>
      <trkpt lat="43.47529" lon="6.50577">
        <ele>149.7</ele>
        <time>2022-12-19T13:34:26Z</time>
      </trkpt>
      <trkpt lat="43.47536" lon="6.50586">
        <ele>148.4</ele>
        <time>2022-12-19T13:34:34Z</time>
      </trkpt>
      <trkpt lat="43.47542" lon="6.50595">
        <ele>147.2</ele>
        <time>2022-12-19T13:34:43Z</time>
      </trkpt>
      <trkpt lat="43.47548" lon="6.50604">
        <ele>146.3</ele>
        <time>2022-12-19T13:34:52Z</time>
      </trkpt>
      <trkpt lat="43.47557" lon="6.50607">
        <ele>144.6</ele>
        <time>2022-12-19T13:35:12Z</time>
      </trkpt>
      <trkpt lat="43.47554" lon="6.50619">
        <ele>143.7</ele>
        <time>2022-12-19T13:36:01Z</time>
      </trkpt>
      <trkpt lat="43.47551" lon="6.50631">
        <ele>143.3</ele>
        <time>2022-12-19T13:36:35Z</time>
      </trkpt>
      <trkpt lat="43.47553" lon="6.50644">
        <ele>143.5</ele>
        <time>2022-12-19T13:36:45Z</time>
      </trkpt>
      <trkpt lat="43.47553" lon="6.50657">
        <ele>143.3</ele>
        <time>2022-12-19T13:37:13Z</time>
      </trkpt>
      <trkpt lat="43.47553" lon="6.5067">
        <ele>143.1</ele>
        <time>2022-12-19T13:37:22Z</time>
      </trkpt>
      <trkpt lat="43.47552" lon="6.50683">
        <ele>142.4</ele>
        <time>2022-12-19T13:37:31Z</time>
      </trkpt>
      <trkpt lat="43.47549" lon="6.50696">
        <ele>141.2</ele>
        <time>2022-12-19T13:37:41Z</time>
      </trkpt>
      <trkpt lat="43.47545" lon="6.50708">
        <ele>139.9</ele>
        <time>2022-12-19T13:37:51Z</time>
      </trkpt>
      <trkpt lat="43.47543" lon="6.5072">
        <ele>138.2</ele>
        <time>2022-12-19T13:38:07Z</time>
      </trkpt>
      <trkpt lat="43.47543" lon="6.50733">
        <ele>139.4</ele>
        <time>2022-12-19T13:38:31Z</time>
      </trkpt>
      <trkpt lat="43.47537" lon="6.50743">
        <ele>138</ele>
        <time>2022-12-19T13:38:44Z</time>
      </trkpt>
      <trkpt lat="43.4753" lon="6.50751">
        <ele>137.5</ele>
        <time>2022-12-19T13:38:55Z</time>
      </trkpt>
      <trkpt lat="43.47525" lon="6.50762">
        <ele>137.2</ele>
        <time>2022-12-19T13:39:04Z</time>
      </trkpt>
      <trkpt lat="43.47519" lon="6.50772">
        <ele>137.4</ele>
        <time>2022-12-19T13:39:13Z</time>
      </trkpt>
      <trkpt lat="43.47513" lon="6.50782">
        <ele>137.2</ele>
        <time>2022-12-19T13:39:22Z</time>
      </trkpt>
      <trkpt lat="43.4751" lon="6.50794">
        <ele>137.1</ele>
        <time>2022-12-19T13:39:30Z</time>
      </trkpt>
      <trkpt lat="43.47505" lon="6.50805">
        <ele>137</ele>
        <time>2022-12-19T13:39:39Z</time>
      </trkpt>
      <trkpt lat="43.47501" lon="6.50816">
        <ele>139.2</ele>
        <time>2022-12-19T13:39:49Z</time>
      </trkpt>
      <trkpt lat="43.47497" lon="6.50828">
        <ele>138.2</ele>
        <time>2022-12-19T13:39:59Z</time>
      </trkpt>
      <trkpt lat="43.47494" lon="6.5084">
        <ele>137.2</ele>
        <time>2022-12-19T13:40:09Z</time>
      </trkpt>
      <trkpt lat="43.4749" lon="6.50851">
        <ele>136.9</ele>
        <time>2022-12-19T13:40:18Z</time>
      </trkpt>
      <trkpt lat="43.47486" lon="6.50863">
        <ele>136.9</ele>
        <time>2022-12-19T13:40:28Z</time>
      </trkpt>
      <trkpt lat="43.47482" lon="6.50875">
        <ele>136.8</ele>
        <time>2022-12-19T13:40:38Z</time>
      </trkpt>
      <trkpt lat="43.47478" lon="6.50888">
        <ele>137.4</ele>
        <time>2022-12-19T13:40:48Z</time>
      </trkpt>
      <trkpt lat="43.47474" lon="6.509">
        <ele>137.4</ele>
        <time>2022-12-19T13:40:58Z</time>
      </trkpt>
      <trkpt lat="43.47471" lon="6.50912">
        <ele>137.2</ele>
        <time>2022-12-19T13:41:08Z</time>
      </trkpt>
      <trkpt lat="43.47467" lon="6.50923">
        <ele>137.1</ele>
        <time>2022-12-19T13:41:18Z</time>
      </trkpt>
      <trkpt lat="43.47463" lon="6.50935">
        <ele>136.6</ele>
        <time>2022-12-19T13:41:27Z</time>
      </trkpt>
      <trkpt lat="43.47459" lon="6.50947">
        <ele>136.8</ele>
        <time>2022-12-19T13:41:37Z</time>
      </trkpt>
      <trkpt lat="43.47455" lon="6.5096">
        <ele>134.8</ele>
        <time>2022-12-19T13:41:47Z</time>
      </trkpt>
      <trkpt lat="43.47452" lon="6.50972">
        <ele>137.2</ele>
        <time>2022-12-19T13:41:56Z</time>
      </trkpt>
      <trkpt lat="43.47448" lon="6.50984">
        <ele>138.4</ele>
        <time>2022-12-19T13:42:06Z</time>
      </trkpt>
      <trkpt lat="43.47444" lon="6.50996">
        <ele>138.6</ele>
        <time>2022-12-19T13:42:15Z</time>
      </trkpt>
      <trkpt lat="43.4744" lon="6.51007">
        <ele>138.8</ele>
        <time>2022-12-19T13:42:24Z</time>
      </trkpt>
      <trkpt lat="43.47436" lon="6.5102">
        <ele>138.9</ele>
        <time>2022-12-19T13:42:33Z</time>
      </trkpt>
      <trkpt lat="43.47432" lon="6.51032">
        <ele>139.3</ele>
        <time>2022-12-19T13:42:43Z</time>
      </trkpt>
      <trkpt lat="43.47428" lon="6.51043">
        <ele>139.3</ele>
        <time>2022-12-19T13:42:51Z</time>
      </trkpt>
      <trkpt lat="43.47423" lon="6.51055">
        <ele>139.1</ele>
        <time>2022-12-19T13:43:01Z</time>
      </trkpt>
      <trkpt lat="43.47419" lon="6.51066">
        <ele>139</ele>
        <time>2022-12-19T13:43:10Z</time>
      </trkpt>
      <trkpt lat="43.47414" lon="6.51077">
        <ele>137.1</ele>
        <time>2022-12-19T13:43:20Z</time>
      </trkpt>
      <trkpt lat="43.4741" lon="6.51089">
        <ele>138.3</ele>
        <time>2022-12-19T13:43:36Z</time>
      </trkpt>
      <trkpt lat="43.47405" lon="6.51099">
        <ele>137.7</ele>
        <time>2022-12-19T13:43:45Z</time>
      </trkpt>
      <trkpt lat="43.47398" lon="6.51109">
        <ele>137.8</ele>
        <time>2022-12-19T13:43:56Z</time>
      </trkpt>
      <trkpt lat="43.47391" lon="6.51118">
        <ele>139.3</ele>
        <time>2022-12-19T13:44:05Z</time>
      </trkpt>
      <trkpt lat="43.47384" lon="6.51126">
        <ele>137.3</ele>
        <time>2022-12-19T13:44:17Z</time>
      </trkpt>
      <trkpt lat="43.47376" lon="6.51134">
        <ele>137.7</ele>
        <time>2022-12-19T13:44:29Z</time>
      </trkpt>
      <trkpt lat="43.47368" lon="6.51141">
        <ele>138</ele>
        <time>2022-12-19T13:44:39Z</time>
      </trkpt>
      <trkpt lat="43.4736" lon="6.51147">
        <ele>138.2</ele>
        <time>2022-12-19T13:44:49Z</time>
      </trkpt>
      <trkpt lat="43.47352" lon="6.51153">
        <ele>139.5</ele>
        <time>2022-12-19T13:45:01Z</time>
      </trkpt>
      <trkpt lat="43.47343" lon="6.51161">
        <ele>137.9</ele>
        <time>2022-12-19T13:45:09Z</time>
      </trkpt>
      <trkpt lat="43.47336" lon="6.51169">
        <ele>138.2</ele>
        <time>2022-12-19T13:45:16Z</time>
      </trkpt>
      <trkpt lat="43.47327" lon="6.51174">
        <ele>137.7</ele>
        <time>2022-12-19T13:45:24Z</time>
      </trkpt>
      <trkpt lat="43.47319" lon="6.51179">
        <ele>136.9</ele>
        <time>2022-12-19T13:45:33Z</time>
      </trkpt>
      <trkpt lat="43.47311" lon="6.51186">
        <ele>136.1</ele>
        <time>2022-12-19T13:45:42Z</time>
      </trkpt>
      <trkpt lat="43.47303" lon="6.51194">
        <ele>135.4</ele>
        <time>2022-12-19T13:45:53Z</time>
      </trkpt>
      <trkpt lat="43.47295" lon="6.51201">
        <ele>134.5</ele>
        <time>2022-12-19T13:46:06Z</time>
      </trkpt>
      <trkpt lat="43.47287" lon="6.51207">
        <ele>133.6</ele>
        <time>2022-12-19T13:46:16Z</time>
      </trkpt>
      <trkpt lat="43.47279" lon="6.51214">
        <ele>136.1</ele>
        <time>2022-12-19T13:46:32Z</time>
      </trkpt>
      <trkpt lat="43.47271" lon="6.51221">
        <ele>132.9</ele>
        <time>2022-12-19T13:46:47Z</time>
      </trkpt>
      <trkpt lat="43.47263" lon="6.51228">
        <ele>131.7</ele>
        <time>2022-12-19T13:46:58Z</time>
      </trkpt>
      <trkpt lat="43.47261" lon="6.5124">
        <ele>128.7</ele>
        <time>2022-12-19T13:47:12Z</time>
      </trkpt>
      <trkpt lat="43.47263" lon="6.51253">
        <ele>129.1</ele>
        <time>2022-12-19T13:47:22Z</time>
      </trkpt>
      <trkpt lat="43.47263" lon="6.51266">
        <ele>128.1</ele>
        <time>2022-12-19T13:47:42Z</time>
      </trkpt>
      <trkpt lat="43.47261" lon="6.51279">
        <ele>127.2</ele>
        <time>2022-12-19T13:47:54Z</time>
      </trkpt>
      <trkpt lat="43.4726" lon="6.51292">
        <ele>126</ele>
        <time>2022-12-19T13:48:06Z</time>
      </trkpt>
      <trkpt lat="43.47261" lon="6.51304">
        <ele>124.8</ele>
        <time>2022-12-19T13:48:29Z</time>
      </trkpt>
      <trkpt lat="43.4726" lon="6.51317">
        <ele>124.2</ele>
        <time>2022-12-19T13:48:44Z</time>
      </trkpt>
      <trkpt lat="43.47259" lon="6.51331">
        <ele>123.2</ele>
        <time>2022-12-19T13:48:56Z</time>
      </trkpt>
      <trkpt lat="43.47258" lon="6.51344">
        <ele>121.8</ele>
        <time>2022-12-19T13:49:09Z</time>
      </trkpt>
      <trkpt lat="43.47255" lon="6.51356">
        <ele>120.6</ele>
        <time>2022-12-19T13:49:22Z</time>
      </trkpt>
      <trkpt lat="43.47253" lon="6.51368">
        <ele>119.2</ele>
        <time>2022-12-19T13:50:44Z</time>
      </trkpt>
      <trkpt lat="43.47259" lon="6.51378">
        <ele>119.2</ele>
        <time>2022-12-19T13:51:01Z</time>
      </trkpt>
      <trkpt lat="43.47261" lon="6.51391">
        <ele>117.4</ele>
        <time>2022-12-19T13:51:14Z</time>
      </trkpt>
      <trkpt lat="43.4726" lon="6.51403">
        <ele>116.8</ele>
        <time>2022-12-19T13:51:23Z</time>
      </trkpt>
      <trkpt lat="43.47259" lon="6.51416">
        <ele>115.7</ele>
        <time>2022-12-19T13:51:32Z</time>
      </trkpt>
      <trkpt lat="43.47256" lon="6.51427">
        <ele>115</ele>
        <time>2022-12-19T13:51:41Z</time>
      </trkpt>
      <trkpt lat="43.47252" lon="6.51438">
        <ele>113.8</ele>
        <time>2022-12-19T13:51:50Z</time>
      </trkpt>
      <trkpt lat="43.47246" lon="6.51449">
        <ele>112.9</ele>
        <time>2022-12-19T13:52:00Z</time>
      </trkpt>
      <trkpt lat="43.47239" lon="6.51457">
        <ele>112.4</ele>
        <time>2022-12-19T13:52:09Z</time>
      </trkpt>
      <trkpt lat="43.47234" lon="6.51469">
        <ele>111.8</ele>
        <time>2022-12-19T13:52:21Z</time>
      </trkpt>
      <trkpt lat="43.47228" lon="6.51479">
        <ele>109.7</ele>
        <time>2022-12-19T13:52:35Z</time>
      </trkpt>
      <trkpt lat="43.47222" lon="6.5149">
        <ele>109.6</ele>
        <time>2022-12-19T13:52:45Z</time>
      </trkpt>
      <trkpt lat="43.47216" lon="6.515">
        <ele>110.3</ele>
        <time>2022-12-19T13:52:54Z</time>
      </trkpt>
      <trkpt lat="43.4721" lon="6.51511">
        <ele>108.1</ele>
        <time>2022-12-19T13:53:03Z</time>
      </trkpt>
      <trkpt lat="43.47204" lon="6.51522">
        <ele>108.9</ele>
        <time>2022-12-19T13:53:37Z</time>
      </trkpt>
      <trkpt lat="43.47201" lon="6.51534">
        <ele>108.7</ele>
        <time>2022-12-19T13:53:47Z</time>
      </trkpt>
      <trkpt lat="43.47197" lon="6.51546">
        <ele>108.1</ele>
        <time>2022-12-19T13:53:57Z</time>
      </trkpt>
      <trkpt lat="43.47193" lon="6.51556">
        <ele>109.9</ele>
        <time>2022-12-19T13:54:06Z</time>
      </trkpt>
      <trkpt lat="43.47189" lon="6.51568">
        <ele>107.5</ele>
        <time>2022-12-19T13:54:16Z</time>
      </trkpt>
      <trkpt lat="43.47184" lon="6.51581">
        <ele>106.3</ele>
        <time>2022-12-19T13:54:26Z</time>
      </trkpt>
      <trkpt lat="43.4718" lon="6.51592">
        <ele>105.8</ele>
        <time>2022-12-19T13:54:50Z</time>
      </trkpt>
      <trkpt lat="43.47174" lon="6.51601">
        <ele>105.7</ele>
        <time>2022-12-19T13:55:02Z</time>
      </trkpt>
      <trkpt lat="43.47166" lon="6.51607">
        <ele>106.1</ele>
        <time>2022-12-19T13:55:13Z</time>
      </trkpt>
      <trkpt lat="43.47157" lon="6.5161">
        <ele>106.2</ele>
        <time>2022-12-19T13:55:23Z</time>
      </trkpt>
      <trkpt lat="43.47148" lon="6.51609">
        <ele>105.6</ele>
        <time>2022-12-19T13:55:33Z</time>
      </trkpt>
      <trkpt lat="43.47139" lon="6.51611">
        <ele>105.9</ele>
        <time>2022-12-19T13:55:42Z</time>
      </trkpt>
      <trkpt lat="43.47129" lon="6.5161">
        <ele>106.4</ele>
        <time>2022-12-19T13:55:51Z</time>
      </trkpt>
      <trkpt lat="43.4712" lon="6.51611">
        <ele>106.5</ele>
        <time>2022-12-19T13:56:00Z</time>
      </trkpt>
      <trkpt lat="43.47111" lon="6.51615">
        <ele>106.7</ele>
        <time>2022-12-19T13:56:09Z</time>
      </trkpt>
      <trkpt lat="43.47104" lon="6.51623">
        <ele>106.4</ele>
        <time>2022-12-19T13:56:20Z</time>
      </trkpt>
      <trkpt lat="43.47099" lon="6.51633">
        <ele>104.5</ele>
        <time>2022-12-19T13:56:35Z</time>
      </trkpt>
      <trkpt lat="43.47091" lon="6.51641">
        <ele>109.1</ele>
        <time>2022-12-19T13:56:48Z</time>
      </trkpt>
      <trkpt lat="43.47095" lon="6.51652">
        <ele>109.1</ele>
        <time>2022-12-19T13:57:11Z</time>
      </trkpt>
      <trkpt lat="43.47103" lon="6.51659">
        <ele>108.5</ele>
        <time>2022-12-19T13:57:21Z</time>
      </trkpt>
      <trkpt lat="43.47111" lon="6.51665">
        <ele>107.8</ele>
        <time>2022-12-19T13:57:31Z</time>
      </trkpt>
      <trkpt lat="43.47118" lon="6.51674">
        <ele>107.1</ele>
        <time>2022-12-19T13:57:41Z</time>
      </trkpt>
      <trkpt lat="43.47126" lon="6.5168">
        <ele>106.4</ele>
        <time>2022-12-19T13:57:50Z</time>
      </trkpt>
      <trkpt lat="43.47134" lon="6.51687">
        <ele>106</ele>
        <time>2022-12-19T13:57:59Z</time>
      </trkpt>
      <trkpt lat="43.47141" lon="6.51695">
        <ele>105.4</ele>
        <time>2022-12-19T13:58:09Z</time>
      </trkpt>
      <trkpt lat="43.47149" lon="6.51703">
        <ele>105</ele>
        <time>2022-12-19T13:58:18Z</time>
      </trkpt>
      <trkpt lat="43.47156" lon="6.51711">
        <ele>104.8</ele>
        <time>2022-12-19T13:58:27Z</time>
      </trkpt>
      <trkpt lat="43.47163" lon="6.5172">
        <ele>104.3</ele>
        <time>2022-12-19T13:58:37Z</time>
      </trkpt>
      <trkpt lat="43.47171" lon="6.51727">
        <ele>104.2</ele>
        <time>2022-12-19T13:58:47Z</time>
      </trkpt>
      <trkpt lat="43.47178" lon="6.51734">
        <ele>103.9</ele>
        <time>2022-12-19T13:58:57Z</time>
      </trkpt>
      <trkpt lat="43.47185" lon="6.51743">
        <ele>103.9</ele>
        <time>2022-12-19T13:59:07Z</time>
      </trkpt>
      <trkpt lat="43.47194" lon="6.51748">
        <ele>103.7</ele>
        <time>2022-12-19T13:59:18Z</time>
      </trkpt>
      <trkpt lat="43.47201" lon="6.51757">
        <ele>103.5</ele>
        <time>2022-12-19T13:59:28Z</time>
      </trkpt>
      <trkpt lat="43.47209" lon="6.51764">
        <ele>103.4</ele>
        <time>2022-12-19T13:59:46Z</time>
      </trkpt>
      <trkpt lat="43.47216" lon="6.51772">
        <ele>103.6</ele>
        <time>2022-12-19T13:59:55Z</time>
      </trkpt>
      <trkpt lat="43.47224" lon="6.5178">
        <ele>103.6</ele>
        <time>2022-12-19T14:00:04Z</time>
      </trkpt>
      <trkpt lat="43.47231" lon="6.51789">
        <ele>103.6</ele>
        <time>2022-12-19T14:00:14Z</time>
      </trkpt>
      <trkpt lat="43.47238" lon="6.51796">
        <ele>103.5</ele>
        <time>2022-12-19T14:00:23Z</time>
      </trkpt>
      <trkpt lat="43.47244" lon="6.51806">
        <ele>103.5</ele>
        <time>2022-12-19T14:00:33Z</time>
      </trkpt>
      <trkpt lat="43.47243" lon="6.51819">
        <ele>103.4</ele>
        <time>2022-12-19T14:01:13Z</time>
      </trkpt>
      <trkpt lat="43.47237" lon="6.51828">
        <ele>102.8</ele>
        <time>2022-12-19T14:01:24Z</time>
      </trkpt>
      <trkpt lat="43.47229" lon="6.51837">
        <ele>105.3</ele>
        <time>2022-12-19T14:01:34Z</time>
      </trkpt>
      <trkpt lat="43.47221" lon="6.51844">
        <ele>105</ele>
        <time>2022-12-19T14:01:44Z</time>
      </trkpt>
      <trkpt lat="43.47214" lon="6.51852">
        <ele>101.9</ele>
        <time>2022-12-19T14:01:54Z</time>
      </trkpt>
      <trkpt lat="43.47208" lon="6.51863">
        <ele>100.8</ele>
        <time>2022-12-19T14:02:40Z</time>
      </trkpt>
      <trkpt lat="43.47202" lon="6.51875">
        <ele>100.2</ele>
        <time>2022-12-19T14:02:51Z</time>
      </trkpt>
      <trkpt lat="43.47198" lon="6.51887">
        <ele>100.1</ele>
        <time>2022-12-19T14:03:03Z</time>
      </trkpt>
      <trkpt lat="43.47202" lon="6.51899">
        <ele>100.4</ele>
        <time>2022-12-19T14:03:22Z</time>
      </trkpt>
      <trkpt lat="43.47208" lon="6.51909">
        <ele>100.1</ele>
        <time>2022-12-19T14:03:35Z</time>
      </trkpt>
      <trkpt lat="43.47212" lon="6.51921">
        <ele>99.6</ele>
        <time>2022-12-19T14:03:46Z</time>
      </trkpt>
      <trkpt lat="43.47218" lon="6.51932">
        <ele>97.3</ele>
        <time>2022-12-19T14:04:07Z</time>
      </trkpt>
      <trkpt lat="43.47222" lon="6.51943">
        <ele>97.1</ele>
        <time>2022-12-19T14:04:18Z</time>
      </trkpt>
      <trkpt lat="43.47225" lon="6.51956">
        <ele>97.1</ele>
        <time>2022-12-19T14:04:27Z</time>
      </trkpt>
      <trkpt lat="43.47231" lon="6.51966">
        <ele>97</ele>
        <time>2022-12-19T14:04:36Z</time>
      </trkpt>
      <trkpt lat="43.47238" lon="6.51976">
        <ele>97.3</ele>
        <time>2022-12-19T14:04:46Z</time>
      </trkpt>
      <trkpt lat="43.47243" lon="6.51987">
        <ele>98</ele>
        <time>2022-12-19T14:04:56Z</time>
      </trkpt>
      <trkpt lat="43.47247" lon="6.51997">
        <ele>99.5</ele>
        <time>2022-12-19T14:05:22Z</time>
      </trkpt>
      <trkpt lat="43.47246" lon="6.5201">
        <ele>98</ele>
        <time>2022-12-19T14:06:12Z</time>
      </trkpt>
      <trkpt lat="43.47243" lon="6.52022">
        <ele>99.9</ele>
        <time>2022-12-19T14:07:09Z</time>
      </trkpt>
      <trkpt lat="43.47244" lon="6.52036">
        <ele>99.3</ele>
        <time>2022-12-19T14:07:21Z</time>
      </trkpt>
      <trkpt lat="43.47243" lon="6.52048">
        <ele>99.3</ele>
        <time>2022-12-19T14:07:32Z</time>
      </trkpt>
      <trkpt lat="43.47247" lon="6.52061">
        <ele>99.1</ele>
        <time>2022-12-19T14:07:43Z</time>
      </trkpt>
      <trkpt lat="43.47252" lon="6.52072">
        <ele>99.2</ele>
        <time>2022-12-19T14:07:53Z</time>
      </trkpt>
      <trkpt lat="43.47255" lon="6.52084">
        <ele>99.4</ele>
        <time>2022-12-19T14:08:03Z</time>
      </trkpt>
      <trkpt lat="43.47261" lon="6.52094">
        <ele>99.6</ele>
        <time>2022-12-19T14:08:17Z</time>
      </trkpt>
      <trkpt lat="43.4727" lon="6.52099">
        <ele>99.8</ele>
        <time>2022-12-19T14:08:25Z</time>
      </trkpt>
      <trkpt lat="43.47278" lon="6.52103">
        <ele>100.2</ele>
        <time>2022-12-19T14:08:36Z</time>
      </trkpt>
      <trkpt lat="43.47287" lon="6.52104">
        <ele>100.4</ele>
        <time>2022-12-19T14:08:48Z</time>
      </trkpt>
      <trkpt lat="43.47296" lon="6.52101">
        <ele>101</ele>
        <time>2022-12-19T14:08:59Z</time>
      </trkpt>
      <trkpt lat="43.47305" lon="6.521">
        <ele>101.6</ele>
        <time>2022-12-19T14:09:10Z</time>
      </trkpt>
      <trkpt lat="43.47315" lon="6.52098">
        <ele>102.2</ele>
        <time>2022-12-19T14:09:22Z</time>
      </trkpt>
      <trkpt lat="43.47322" lon="6.52091">
        <ele>102.7</ele>
        <time>2022-12-19T14:09:31Z</time>
      </trkpt>
      <trkpt lat="43.4733" lon="6.52083">
        <ele>104</ele>
        <time>2022-12-19T14:09:46Z</time>
      </trkpt>
      <trkpt lat="43.47338" lon="6.52076">
        <ele>105.6</ele>
        <time>2022-12-19T14:10:02Z</time>
      </trkpt>
      <trkpt lat="43.47345" lon="6.52067">
        <ele>106.6</ele>
        <time>2022-12-19T14:10:13Z</time>
      </trkpt>
      <trkpt lat="43.47353" lon="6.52061">
        <ele>107.4</ele>
        <time>2022-12-19T14:10:25Z</time>
      </trkpt>
      <trkpt lat="43.47361" lon="6.52053">
        <ele>108.1</ele>
        <time>2022-12-19T14:10:36Z</time>
      </trkpt>
      <trkpt lat="43.47369" lon="6.52048">
        <ele>108.7</ele>
        <time>2022-12-19T14:10:47Z</time>
      </trkpt>
      <trkpt lat="43.47378" lon="6.52046">
        <ele>109.2</ele>
        <time>2022-12-19T14:10:58Z</time>
      </trkpt>
      <trkpt lat="43.47388" lon="6.52044">
        <ele>109.4</ele>
        <time>2022-12-19T14:11:08Z</time>
      </trkpt>
      <trkpt lat="43.47397" lon="6.52043">
        <ele>109.4</ele>
        <time>2022-12-19T14:11:19Z</time>
      </trkpt>
      <trkpt lat="43.47407" lon="6.52041">
        <ele>109.6</ele>
        <time>2022-12-19T14:11:29Z</time>
      </trkpt>
      <trkpt lat="43.47417" lon="6.52039">
        <ele>109.7</ele>
        <time>2022-12-19T14:11:39Z</time>
      </trkpt>
      <trkpt lat="43.47425" lon="6.52036">
        <ele>109.7</ele>
        <time>2022-12-19T14:11:48Z</time>
      </trkpt>
      <trkpt lat="43.47434" lon="6.52032">
        <ele>109.9</ele>
        <time>2022-12-19T14:11:58Z</time>
      </trkpt>
      <trkpt lat="43.47443" lon="6.52027">
        <ele>110</ele>
        <time>2022-12-19T14:12:08Z</time>
      </trkpt>
      <trkpt lat="43.47452" lon="6.52024">
        <ele>109.5</ele>
        <time>2022-12-19T14:12:27Z</time>
      </trkpt>
      <trkpt lat="43.47461" lon="6.52018">
        <ele>109.9</ele>
        <time>2022-12-19T14:12:39Z</time>
      </trkpt>
      <trkpt lat="43.4747" lon="6.52014">
        <ele>111.1</ele>
        <time>2022-12-19T14:12:49Z</time>
      </trkpt>
      <trkpt lat="43.47479" lon="6.52011">
        <ele>111.9</ele>
        <time>2022-12-19T14:12:59Z</time>
      </trkpt>
      <trkpt lat="43.47489" lon="6.52007">
        <ele>112.1</ele>
        <time>2022-12-19T14:13:10Z</time>
      </trkpt>
      <trkpt lat="43.47498" lon="6.52004">
        <ele>112.2</ele>
        <time>2022-12-19T14:13:19Z</time>
      </trkpt>
      <trkpt lat="43.47507" lon="6.51999">
        <ele>111.8</ele>
        <time>2022-12-19T14:13:31Z</time>
      </trkpt>
      <trkpt lat="43.47516" lon="6.51993">
        <ele>111.6</ele>
        <time>2022-12-19T14:13:42Z</time>
      </trkpt>
      <trkpt lat="43.47524" lon="6.51988">
        <ele>111.5</ele>
        <time>2022-12-19T14:13:52Z</time>
      </trkpt>
      <trkpt lat="43.47532" lon="6.51981">
        <ele>111.3</ele>
        <time>2022-12-19T14:14:01Z</time>
      </trkpt>
      <trkpt lat="43.47538" lon="6.51972">
        <ele>111.2</ele>
        <time>2022-12-19T14:14:10Z</time>
      </trkpt>
      <trkpt lat="43.4754" lon="6.5196">
        <ele>111.2</ele>
        <time>2022-12-19T14:14:21Z</time>
      </trkpt>
      <trkpt lat="43.47541" lon="6.51948">
        <ele>111.2</ele>
        <time>2022-12-19T14:14:32Z</time>
      </trkpt>
      <trkpt lat="43.47542" lon="6.51935">
        <ele>111.3</ele>
        <time>2022-12-19T14:14:43Z</time>
      </trkpt>
      <trkpt lat="43.47544" lon="6.51922">
        <ele>111.2</ele>
        <time>2022-12-19T14:14:54Z</time>
      </trkpt>
      <trkpt lat="43.47553" lon="6.5192">
        <ele>111.1</ele>
        <time>2022-12-19T14:16:22Z</time>
      </trkpt>
      <trkpt lat="43.47561" lon="6.51915">
        <ele>111.2</ele>
        <time>2022-12-19T14:16:38Z</time>
      </trkpt>
      <trkpt lat="43.47571" lon="6.51914">
        <ele>111.3</ele>
        <time>2022-12-19T14:16:50Z</time>
      </trkpt>
      <trkpt lat="43.4758" lon="6.51913">
        <ele>111.4</ele>
        <time>2022-12-19T14:17:04Z</time>
      </trkpt>
      <trkpt lat="43.4759" lon="6.51913">
        <ele>111.6</ele>
        <time>2022-12-19T14:18:04Z</time>
      </trkpt>
      <trkpt lat="43.47599" lon="6.51914">
        <ele>111.8</ele>
        <time>2022-12-19T14:18:15Z</time>
      </trkpt>
      <trkpt lat="43.47608" lon="6.51911">
        <ele>111.7</ele>
        <time>2022-12-19T14:18:27Z</time>
      </trkpt>
      <trkpt lat="43.47617" lon="6.51909">
        <ele>111.7</ele>
        <time>2022-12-19T14:18:41Z</time>
      </trkpt>
      <trkpt lat="43.47627" lon="6.51908">
        <ele>112.1</ele>
        <time>2022-12-19T14:18:54Z</time>
      </trkpt>
      <trkpt lat="43.47637" lon="6.51906">
        <ele>113.1</ele>
        <time>2022-12-19T14:19:07Z</time>
      </trkpt>
      <trkpt lat="43.47646" lon="6.51904">
        <ele>112.3</ele>
        <time>2022-12-19T14:19:18Z</time>
      </trkpt>
      <trkpt lat="43.47655" lon="6.519">
        <ele>110.6</ele>
        <time>2022-12-19T14:19:30Z</time>
      </trkpt>
      <trkpt lat="43.47664" lon="6.51897">
        <ele>113.6</ele>
        <time>2022-12-19T14:19:40Z</time>
      </trkpt>
      <trkpt lat="43.47673" lon="6.51895">
        <ele>114</ele>
        <time>2022-12-19T14:19:50Z</time>
      </trkpt>
      <trkpt lat="43.47682" lon="6.51892">
        <ele>113.6</ele>
        <time>2022-12-19T14:20:02Z</time>
      </trkpt>
      <trkpt lat="43.47691" lon="6.51888">
        <ele>113.9</ele>
        <time>2022-12-19T14:20:12Z</time>
      </trkpt>
      <trkpt lat="43.477" lon="6.51885">
        <ele>115.2</ele>
        <time>2022-12-19T14:20:22Z</time>
      </trkpt>
      <trkpt lat="43.4771" lon="6.51883">
        <ele>114</ele>
        <time>2022-12-19T14:20:32Z</time>
      </trkpt>
      <trkpt lat="43.47719" lon="6.5188">
        <ele>114.6</ele>
        <time>2022-12-19T14:20:42Z</time>
      </trkpt>
      <trkpt lat="43.47728" lon="6.51876">
        <ele>114</ele>
        <time>2022-12-19T14:20:53Z</time>
      </trkpt>
      <trkpt lat="43.47737" lon="6.51871">
        <ele>113.8</ele>
        <time>2022-12-19T14:21:04Z</time>
      </trkpt>
      <trkpt lat="43.47746" lon="6.51867">
        <ele>114.3</ele>
        <time>2022-12-19T14:21:15Z</time>
      </trkpt>
      <trkpt lat="43.47755" lon="6.51863">
        <ele>114.8</ele>
        <time>2022-12-19T14:21:25Z</time>
      </trkpt>
      <trkpt lat="43.47764" lon="6.51858">
        <ele>115</ele>
        <time>2022-12-19T14:21:36Z</time>
      </trkpt>
      <trkpt lat="43.47773" lon="6.51854">
        <ele>115.5</ele>
        <time>2022-12-19T14:21:47Z</time>
      </trkpt>
      <trkpt lat="43.47782" lon="6.5185">
        <ele>115</ele>
        <time>2022-12-19T14:21:55Z</time>
      </trkpt>
      <trkpt lat="43.4779" lon="6.51846">
        <ele>116.8</ele>
        <time>2022-12-19T14:22:05Z</time>
      </trkpt>
      <trkpt lat="43.47791" lon="6.51833">
        <ele>116.1</ele>
        <time>2022-12-19T14:22:23Z</time>
      </trkpt>
      <trkpt lat="43.47786" lon="6.51823">
        <ele>116.1</ele>
        <time>2022-12-19T14:22:34Z</time>
      </trkpt>
      <trkpt lat="43.47786" lon="6.5181">
        <ele>115.9</ele>
        <time>2022-12-19T14:22:46Z</time>
      </trkpt>
      <trkpt lat="43.47789" lon="6.51797">
        <ele>112.5</ele>
        <time>2022-12-19T14:23:08Z</time>
      </trkpt>
      <trkpt lat="43.47783" lon="6.51787">
        <ele>110.2</ele>
        <time>2022-12-19T14:23:19Z</time>
      </trkpt>
      <trkpt lat="43.47778" lon="6.51776">
        <ele>111.5</ele>
        <time>2022-12-19T14:23:36Z</time>
      </trkpt>
      <trkpt lat="43.47772" lon="6.51765">
        <ele>111</ele>
        <time>2022-12-19T14:23:46Z</time>
      </trkpt>
      <trkpt lat="43.47769" lon="6.51753">
        <ele>109.4</ele>
        <time>2022-12-19T14:24:06Z</time>
      </trkpt>
      <trkpt lat="43.47764" lon="6.51742">
        <ele>110</ele>
        <time>2022-12-19T14:24:16Z</time>
      </trkpt>
      <trkpt lat="43.47758" lon="6.51731">
        <ele>110.3</ele>
        <time>2022-12-19T14:24:26Z</time>
      </trkpt>
      <trkpt lat="43.47752" lon="6.51719">
        <ele>110.3</ele>
        <time>2022-12-19T14:24:35Z</time>
      </trkpt>
      <trkpt lat="43.47746" lon="6.5171">
        <ele>109.6</ele>
        <time>2022-12-19T14:24:44Z</time>
      </trkpt>
      <trkpt lat="43.47737" lon="6.51703">
        <ele>109.8</ele>
        <time>2022-12-19T14:24:57Z</time>
      </trkpt>
      <trkpt lat="43.47731" lon="6.51693">
        <ele>109.9</ele>
        <time>2022-12-19T14:25:06Z</time>
      </trkpt>
      <trkpt lat="43.47728" lon="6.51681">
        <ele>110.7</ele>
        <time>2022-12-19T14:25:16Z</time>
      </trkpt>
      <trkpt lat="43.47726" lon="6.51668">
        <ele>109.4</ele>
        <time>2022-12-19T14:25:26Z</time>
      </trkpt>
      <trkpt lat="43.47721" lon="6.51657">
        <ele>108.7</ele>
        <time>2022-12-19T14:25:35Z</time>
      </trkpt>
      <trkpt lat="43.47716" lon="6.51646">
        <ele>106.8</ele>
        <time>2022-12-19T14:25:44Z</time>
      </trkpt>
      <trkpt lat="43.47712" lon="6.51634">
        <ele>110.3</ele>
        <time>2022-12-19T14:25:53Z</time>
      </trkpt>
      <trkpt lat="43.47706" lon="6.51623">
        <ele>108.3</ele>
        <time>2022-12-19T14:26:03Z</time>
      </trkpt>
      <trkpt lat="43.47699" lon="6.51614">
        <ele>107.9</ele>
        <time>2022-12-19T14:26:12Z</time>
      </trkpt>
      <trkpt lat="43.47694" lon="6.51603">
        <ele>108</ele>
        <time>2022-12-19T14:26:23Z</time>
      </trkpt>
      <trkpt lat="43.47688" lon="6.51593">
        <ele>107.9</ele>
        <time>2022-12-19T14:26:32Z</time>
      </trkpt>
      <trkpt lat="43.47681" lon="6.51584">
        <ele>108.3</ele>
        <time>2022-12-19T14:26:42Z</time>
      </trkpt>
      <trkpt lat="43.47674" lon="6.51573">
        <ele>107.7</ele>
        <time>2022-12-19T14:26:52Z</time>
      </trkpt>
      <trkpt lat="43.47669" lon="6.51562">
        <ele>108</ele>
        <time>2022-12-19T14:27:01Z</time>
      </trkpt>
      <trkpt lat="43.47667" lon="6.51549">
        <ele>108.7</ele>
        <time>2022-12-19T14:27:12Z</time>
      </trkpt>
      <trkpt lat="43.47664" lon="6.51536">
        <ele>109.2</ele>
        <time>2022-12-19T14:27:20Z</time>
      </trkpt>
      <trkpt lat="43.4766" lon="6.51524">
        <ele>109</ele>
        <time>2022-12-19T14:27:29Z</time>
      </trkpt>
      <trkpt lat="43.47654" lon="6.51513">
        <ele>109</ele>
        <time>2022-12-19T14:27:38Z</time>
      </trkpt>
      <trkpt lat="43.47648" lon="6.51503">
        <ele>109.2</ele>
        <time>2022-12-19T14:27:48Z</time>
      </trkpt>
      <trkpt lat="43.47643" lon="6.51491">
        <ele>109.2</ele>
        <time>2022-12-19T14:27:58Z</time>
      </trkpt>
      <trkpt lat="43.47642" lon="6.51479">
        <ele>109.8</ele>
        <time>2022-12-19T14:28:08Z</time>
      </trkpt>
      <trkpt lat="43.47639" lon="6.51466">
        <ele>110.3</ele>
        <time>2022-12-19T14:28:18Z</time>
      </trkpt>
      <trkpt lat="43.47636" lon="6.51454">
        <ele>110.9</ele>
        <time>2022-12-19T14:28:28Z</time>
      </trkpt>
      <trkpt lat="43.47634" lon="6.5144">
        <ele>111.6</ele>
        <time>2022-12-19T14:28:40Z</time>
      </trkpt>
      <trkpt lat="43.47633" lon="6.51428">
        <ele>112.4</ele>
        <time>2022-12-19T14:28:51Z</time>
      </trkpt>
      <trkpt lat="43.47634" lon="6.51415">
        <ele>112.8</ele>
        <time>2022-12-19T14:29:01Z</time>
      </trkpt>
      <trkpt lat="43.47633" lon="6.51402">
        <ele>113.6</ele>
        <time>2022-12-19T14:29:37Z</time>
      </trkpt>
      <trkpt lat="43.47628" lon="6.5139">
        <ele>113.8</ele>
        <time>2022-12-19T14:29:48Z</time>
      </trkpt>
      <trkpt lat="43.47626" lon="6.51378">
        <ele>114.3</ele>
        <time>2022-12-19T14:29:59Z</time>
      </trkpt>
      <trkpt lat="43.47629" lon="6.51379">
        <ele>112.3</ele>
        <time>2022-12-19T14:31:11Z</time>
      </trkpt>
    </trkseg>
  </trk>
</gpx>